UAE3HJ OMDB-YSSY
Flight info
| Callsign | UAE3HJ |
|---|---|
| Flight time | N/A |
| Altitude | 33000 |
| Route | ANVIX L223 TARDI N629 GIDAN P570 EMURU M300 MESAN/N0493F350 M300 VASTU P895 BIKOK M641 KAT N640 PIMOG/N0485F370 N640 ELATI DCT 04S092E 06S094E DCT EPGUP DCT EMVAS DCT 14S104E 17S109E DCT KA/N0471F390 DCT GUKON DCT 25S127E DCT ARENI DCT 28S135E 30S140E DCT VAGPO Y71 VELGI Y105 TARAL Y59 RIVET |
| Aircraft | A388/J-SADE2E3FGHIJ3J4J5M1RWXY/LB1D1 |
Departure
| Time | N/A |
|---|---|
| Airport | Dubai International Airport (OMDB) |
Arrival
| Time | 2026-05-04 07:52 |
|---|---|
| Airport | Sydney Kingsford Smith International Airport (YSSY) |
| Time | Latitude | Longitude | Altitude | Speed | Heading |
|---|---|---|---|---|---|
| 2026-05-03 20:15 | 19.23050 | 63.23078 | 32792 ft | 540 kts | 121° |
| 2026-05-03 20:15 | 19.18937 | 63.29714 | 32797 ft | 539 kts | 121° |
| 2026-05-03 20:16 | 19.14817 | 63.36354 | 32789 ft | 539 kts | 121° |
| 2026-05-03 20:16 | 19.10706 | 63.42974 | 32794 ft | 538 kts | 121° |
| 2026-05-03 20:17 | 19.06595 | 63.49586 | 32796 ft | 538 kts | 121° |
| 2026-05-03 20:17 | 19.02483 | 63.56195 | 32796 ft | 538 kts | 121° |
| 2026-05-03 20:18 | 18.98401 | 63.62751 | 32797 ft | 537 kts | 121° |
| 2026-05-03 20:18 | 18.94288 | 63.69343 | 32797 ft | 537 kts | 121° |
| 2026-05-03 20:19 | 18.90182 | 63.75924 | 32800 ft | 536 kts | 121° |
| 2026-05-03 20:19 | 18.86075 | 63.82500 | 32801 ft | 536 kts | 121° |
| 2026-05-03 20:20 | 18.82666 | 63.87953 | 32795 ft | 535 kts | 121° |
| 2026-05-03 20:20 | 18.78560 | 63.94514 | 32794 ft | 535 kts | 122° |
| 2026-05-03 20:21 | 18.74458 | 64.01061 | 32796 ft | 534 kts | 122° |
| 2026-05-03 20:21 | 18.70357 | 64.07600 | 32802 ft | 534 kts | 122° |
| 2026-05-03 20:22 | 18.66260 | 64.14127 | 32795 ft | 534 kts | 122° |
| 2026-05-03 20:22 | 18.62163 | 64.20646 | 32799 ft | 533 kts | 122° |
| 2026-05-03 20:23 | 18.58065 | 64.27160 | 32800 ft | 533 kts | 122° |
| 2026-05-03 20:23 | 18.53968 | 64.33665 | 32805 ft | 533 kts | 122° |
| 2026-05-03 20:24 | 18.49872 | 64.40164 | 32800 ft | 532 kts | 122° |
| 2026-05-03 20:24 | 18.45774 | 64.46657 | 32801 ft | 532 kts | 122° |
| 2026-05-03 20:25 | 18.41672 | 64.53151 | 32805 ft | 532 kts | 122° |
| 2026-05-03 20:25 | 18.37573 | 64.59633 | 32800 ft | 532 kts | 122° |
| 2026-05-03 20:26 | 18.33492 | 64.66080 | 32804 ft | 532 kts | 122° |
| 2026-05-03 20:26 | 18.29392 | 64.72552 | 32807 ft | 531 kts | 122° |
| 2026-05-03 20:27 | 18.25263 | 64.79062 | 32800 ft | 531 kts | 122° |
| 2026-05-03 20:27 | 18.21159 | 64.85526 | 32805 ft | 531 kts | 122° |
| 2026-05-03 20:28 | 18.17060 | 64.91976 | 32807 ft | 531 kts | 122° |
| 2026-05-03 20:28 | 18.12978 | 64.98393 | 32806 ft | 531 kts | 122° |
| 2026-05-03 20:29 | 18.08866 | 65.04851 | 32805 ft | 531 kts | 122° |
| 2026-05-03 20:29 | 18.04758 | 65.11296 | 32807 ft | 531 kts | 122° |
| 2026-05-03 20:30 | 18.00636 | 65.17756 | 32808 ft | 531 kts | 122° |
| 2026-05-03 20:30 | 17.96523 | 65.24196 | 32811 ft | 531 kts | 122° |
| 2026-05-03 20:31 | 17.92407 | 65.30636 | 32809 ft | 531 kts | 122° |
| 2026-05-03 20:31 | 17.88289 | 65.37070 | 32808 ft | 531 kts | 122° |
| 2026-05-03 20:32 | 17.84171 | 65.43500 | 32813 ft | 531 kts | 122° |
| 2026-05-03 20:32 | 17.80074 | 65.49890 | 32815 ft | 531 kts | 122° |
| 2026-05-03 20:33 | 17.75950 | 65.56316 | 32812 ft | 531 kts | 123° |
| 2026-05-03 20:33 | 17.71824 | 65.62738 | 32814 ft | 531 kts | 123° |
| 2026-05-03 20:34 | 17.67697 | 65.69157 | 32814 ft | 531 kts | 123° |
| 2026-05-03 20:34 | 17.63567 | 65.75575 | 32819 ft | 531 kts | 123° |
| 2026-05-03 20:35 | 17.59464 | 65.82019 | 32815 ft | 530 kts | 121° |
| 2026-05-03 20:35 | 17.55484 | 65.88522 | 32816 ft | 530 kts | 121° |
| 2026-05-03 20:36 | 17.51492 | 65.95029 | 32816 ft | 531 kts | 121° |
| 2026-05-03 20:36 | 17.47484 | 66.01525 | 32817 ft | 531 kts | 122° |
| 2026-05-03 20:37 | 17.43474 | 66.08013 | 32817 ft | 531 kts | 122° |
| 2026-05-03 20:37 | 17.39486 | 66.14457 | 32818 ft | 531 kts | 122° |
| 2026-05-03 20:38 | 17.35467 | 66.20945 | 32820 ft | 531 kts | 122° |
| 2026-05-03 20:38 | 17.31420 | 66.27474 | 32818 ft | 531 kts | 122° |
| 2026-05-03 20:39 | 17.27425 | 66.33911 | 32821 ft | 531 kts | 122° |
| 2026-05-03 20:39 | 17.23394 | 66.40402 | 32822 ft | 531 kts | 122° |
| 2026-05-03 20:40 | 17.19361 | 66.46888 | 32824 ft | 531 kts | 122° |
| 2026-05-03 20:40 | 17.15329 | 66.53366 | 32823 ft | 531 kts | 122° |
| 2026-05-03 20:41 | 17.11296 | 66.59842 | 32824 ft | 531 kts | 122° |
| 2026-05-03 20:41 | 17.07262 | 66.66311 | 32823 ft | 531 kts | 122° |
| 2026-05-03 20:42 | 17.03221 | 66.72786 | 32822 ft | 531 kts | 122° |
| 2026-05-03 20:42 | 16.99186 | 66.79247 | 32824 ft | 531 kts | 122° |
| 2026-05-03 20:43 | 16.95147 | 66.85705 | 32827 ft | 531 kts | 122° |
| 2026-05-03 20:43 | 16.91110 | 66.92156 | 32825 ft | 530 kts | 122° |
| 2026-05-03 20:44 | 16.87071 | 66.98604 | 32828 ft | 530 kts | 122° |
| 2026-05-03 20:44 | 16.83061 | 67.05000 | 32830 ft | 530 kts | 122° |
| 2026-05-03 20:45 | 16.79025 | 67.11430 | 32827 ft | 529 kts | 122° |
| 2026-05-03 20:45 | 16.74986 | 67.17860 | 32828 ft | 529 kts | 122° |
| 2026-05-03 20:46 | 16.70947 | 67.24284 | 32824 ft | 529 kts | 122° |
| 2026-05-03 20:46 | 16.66911 | 67.30698 | 32824 ft | 529 kts | 122° |
| 2026-05-03 20:47 | 16.62878 | 67.37100 | 32823 ft | 529 kts | 122° |
| 2026-05-03 20:47 | 16.58841 | 67.43504 | 32827 ft | 528 kts | 122° |
| 2026-05-03 20:48 | 16.54799 | 67.49909 | 32828 ft | 528 kts | 122° |
| 2026-05-03 20:48 | 16.50786 | 67.56263 | 32829 ft | 528 kts | 122° |
| 2026-05-03 20:49 | 16.46741 | 67.62662 | 32831 ft | 528 kts | 122° |
| 2026-05-03 20:49 | 16.42697 | 67.69053 | 32829 ft | 528 kts | 122° |
| 2026-05-03 20:50 | 16.38650 | 67.75444 | 32833 ft | 528 kts | 122° |
| 2026-05-03 20:50 | 16.34608 | 67.81820 | 32832 ft | 528 kts | 122° |
| 2026-05-03 20:51 | 16.30561 | 67.88200 | 32837 ft | 527 kts | 122° |
| 2026-05-03 20:51 | 16.26523 | 67.94562 | 32835 ft | 527 kts | 122° |
| 2026-05-03 20:52 | 16.22508 | 68.00933 | 32835 ft | 526 kts | 122° |
| 2026-05-03 20:52 | 16.18503 | 68.07312 | 32834 ft | 526 kts | 122° |
| 2026-05-03 20:53 | 16.14500 | 68.13673 | 32831 ft | 525 kts | 122° |
| 2026-05-03 20:53 | 16.10498 | 68.20023 | 32827 ft | 525 kts | 122° |
| 2026-05-03 20:54 | 16.06501 | 68.26359 | 32833 ft | 524 kts | 122° |
| 2026-05-03 20:54 | 16.00527 | 68.35819 | 32831 ft | 523 kts | 122° |
| 2026-05-03 20:55 | 15.96532 | 68.42139 | 32831 ft | 523 kts | 123° |
| 2026-05-03 20:55 | 15.92535 | 68.48456 | 32826 ft | 523 kts | 123° |
| 2026-05-03 20:56 | 15.88535 | 68.54772 | 32828 ft | 523 kts | 123° |
| 2026-05-03 20:56 | 15.84539 | 68.61078 | 32831 ft | 523 kts | 123° |
| 2026-05-03 20:57 | 15.80539 | 68.67383 | 32830 ft | 523 kts | 123° |
| 2026-05-03 20:57 | 15.76533 | 68.73693 | 32834 ft | 522 kts | 123° |
| 2026-05-03 20:58 | 15.72535 | 68.79985 | 32833 ft | 522 kts | 123° |
| 2026-05-03 20:58 | 15.68563 | 68.86231 | 32830 ft | 522 kts | 123° |
| 2026-05-03 20:59 | 15.64566 | 68.92510 | 32830 ft | 521 kts | 123° |
| 2026-05-03 20:59 | 15.60567 | 68.98788 | 32828 ft | 521 kts | 123° |
| 2026-05-03 21:00 | 15.57894 | 69.02981 | 32828 ft | 521 kts | 123° |
| 2026-05-03 21:00 | 15.52575 | 69.11318 | 32830 ft | 521 kts | 123° |
| 2026-05-03 21:01 | 15.48571 | 69.17588 | 32828 ft | 520 kts | 123° |
| 2026-05-03 21:01 | 15.44577 | 69.23837 | 32830 ft | 520 kts | 123° |
| 2026-05-03 21:02 | 15.40582 | 69.30082 | 32829 ft | 520 kts | 123° |
| 2026-05-03 21:02 | 15.36583 | 69.36329 | 32825 ft | 520 kts | 123° |
| 2026-05-03 21:03 | 15.32584 | 69.42571 | 32828 ft | 520 kts | 123° |
| 2026-05-03 21:03 | 15.28581 | 69.48814 | 32886 ft | 523 kts | 123° |
| 2026-05-03 21:04 | 15.26570 | 69.51947 | 33290 ft | 522 kts | 123° |
| 2026-05-03 21:04 | 15.24571 | 69.55063 | 33855 ft | 518 kts | 123° |
| 2026-05-03 21:04 | 15.22583 | 69.58159 | 34270 ft | 516 kts | 123° |
| 2026-05-03 21:04 | 15.20599 | 69.61247 | 34622 ft | 515 kts | 124° |
| 2026-05-03 21:05 | 15.18611 | 69.64341 | 34804 ft | 515 kts | 124° |
| 2026-05-03 21:05 | 15.16655 | 69.67383 | 34830 ft | 513 kts | 123° |
| 2026-05-03 21:05 | 15.12705 | 69.73524 | 34837 ft | 512 kts | 123° |
| 2026-05-03 21:06 | 15.08760 | 69.79696 | 34831 ft | 514 kts | 123° |
| 2026-05-03 21:06 | 15.04847 | 69.85881 | 34829 ft | 514 kts | 123° |
| 2026-05-03 21:07 | 15.01582 | 69.91031 | 34841 ft | 515 kts | 123° |
| 2026-05-03 21:07 | 14.97658 | 69.97210 | 34827 ft | 514 kts | 123° |
| 2026-05-03 21:08 | 14.93733 | 70.03382 | 34828 ft | 513 kts | 123° |
| 2026-05-03 21:08 | 14.89817 | 70.09535 | 34822 ft | 512 kts | 123° |
| 2026-05-03 21:09 | 14.85897 | 70.15690 | 34818 ft | 512 kts | 123° |
| 2026-05-03 21:09 | 14.81979 | 70.21837 | 34817 ft | 512 kts | 123° |
| 2026-05-03 21:10 | 14.78063 | 70.27977 | 34819 ft | 512 kts | 123° |
| 2026-05-03 21:10 | 14.74141 | 70.34120 | 34820 ft | 512 kts | 123° |
| 2026-05-03 21:11 | 14.70222 | 70.40254 | 34829 ft | 512 kts | 123° |
| 2026-05-03 21:11 | 14.66300 | 70.46390 | 34829 ft | 512 kts | 123° |
| 2026-05-03 21:12 | 14.62374 | 70.52525 | 34836 ft | 511 kts | 123° |
| 2026-05-03 21:12 | 14.58453 | 70.58649 | 34832 ft | 511 kts | 123° |
| 2026-05-03 21:13 | 14.54535 | 70.64763 | 34829 ft | 511 kts | 123° |
| 2026-05-03 21:13 | 14.50617 | 70.70873 | 34826 ft | 510 kts | 123° |
| 2026-05-03 21:14 | 14.46697 | 70.76980 | 34824 ft | 510 kts | 123° |
| 2026-05-03 21:14 | 14.42807 | 70.83038 | 34821 ft | 510 kts | 123° |
| 2026-05-03 21:15 | 14.38884 | 70.89140 | 34827 ft | 510 kts | 123° |
| 2026-05-03 21:15 | 14.34962 | 70.95238 | 34825 ft | 510 kts | 123° |
| 2026-05-03 21:16 | 14.31084 | 71.01356 | 34826 ft | 510 kts | 123° |
| 2026-05-03 21:16 | 14.27225 | 71.07486 | 34825 ft | 510 kts | 123° |
| 2026-05-03 21:17 | 14.24005 | 71.12587 | 34823 ft | 510 kts | 123° |
| 2026-05-03 21:17 | 14.19480 | 71.19739 | 34821 ft | 510 kts | 123° |
| 2026-05-03 21:18 | 14.15599 | 71.25867 | 34822 ft | 510 kts | 123° |
| 2026-05-03 21:18 | 14.11719 | 71.31991 | 34827 ft | 511 kts | 123° |
| 2026-05-03 21:19 | 14.07859 | 71.38078 | 34830 ft | 511 kts | 123° |
| 2026-05-03 21:19 | 14.03973 | 71.44200 | 34830 ft | 511 kts | 123° |
| 2026-05-03 21:20 | 14.00083 | 71.50326 | 34828 ft | 511 kts | 123° |
| 2026-05-03 21:20 | 13.96192 | 71.56448 | 34821 ft | 511 kts | 123° |
| 2026-05-03 21:21 | 13.92294 | 71.62577 | 34823 ft | 511 kts | 123° |
| 2026-05-03 21:21 | 13.88397 | 71.68700 | 34825 ft | 511 kts | 123° |
| 2026-05-03 21:22 | 13.84498 | 71.74821 | 34825 ft | 512 kts | 123° |
| 2026-05-03 21:22 | 13.80592 | 71.80949 | 34827 ft | 512 kts | 123° |
| 2026-05-03 21:23 | 13.76686 | 71.87072 | 34826 ft | 512 kts | 123° |
| 2026-05-03 21:23 | 13.72775 | 71.93199 | 34823 ft | 512 kts | 123° |
| 2026-05-03 21:24 | 13.68855 | 71.99317 | 34825 ft | 512 kts | 125° |
| 2026-05-03 21:24 | 13.64433 | 72.05048 | 34824 ft | 512 kts | 129° |
| 2026-05-03 21:25 | 13.59948 | 72.10720 | 34825 ft | 512 kts | 129° |
| 2026-05-03 21:25 | 13.55460 | 72.16404 | 34827 ft | 512 kts | 129° |
| 2026-05-03 21:26 | 13.50966 | 72.22088 | 34824 ft | 512 kts | 129° |
| 2026-05-03 21:26 | 13.46472 | 72.27767 | 34822 ft | 512 kts | 129° |
| 2026-05-03 21:27 | 13.41968 | 72.33454 | 34822 ft | 513 kts | 129° |
| 2026-05-03 21:27 | 13.37497 | 72.39095 | 34820 ft | 513 kts | 129° |
| 2026-05-03 21:28 | 13.32993 | 72.44774 | 34821 ft | 513 kts | 130° |
| 2026-05-03 21:28 | 13.28480 | 72.50460 | 34826 ft | 513 kts | 130° |
| 2026-05-03 21:29 | 13.23969 | 72.56141 | 34825 ft | 513 kts | 130° |
| 2026-05-03 21:29 | 13.19459 | 72.61818 | 34825 ft | 513 kts | 130° |
| 2026-05-03 21:30 | 13.14940 | 72.67501 | 34822 ft | 514 kts | 130° |
| 2026-05-03 21:30 | 13.10420 | 72.73181 | 34823 ft | 514 kts | 130° |
| 2026-05-03 21:31 | 13.05904 | 72.78854 | 34823 ft | 514 kts | 130° |
| 2026-05-03 21:31 | 13.01379 | 72.84534 | 34824 ft | 514 kts | 130° |
| 2026-05-03 21:32 | 12.96856 | 72.90208 | 34819 ft | 514 kts | 130° |
| 2026-05-03 21:32 | 12.92332 | 72.95880 | 34823 ft | 514 kts | 130° |
| 2026-05-03 21:33 | 12.87801 | 73.01556 | 34823 ft | 514 kts | 130° |
| 2026-05-03 21:33 | 12.83295 | 73.07197 | 34821 ft | 514 kts | 130° |
| 2026-05-03 21:34 | 12.78764 | 73.12868 | 34821 ft | 514 kts | 130° |
| 2026-05-03 21:34 | 12.74229 | 73.18538 | 34819 ft | 515 kts | 130° |
| 2026-05-03 21:35 | 12.69687 | 73.24214 | 34822 ft | 515 kts | 130° |
| 2026-05-03 21:35 | 12.65146 | 73.29885 | 34818 ft | 515 kts | 130° |
| 2026-05-03 21:36 | 12.60597 | 73.35563 | 34819 ft | 516 kts | 130° |
| 2026-05-03 21:36 | 12.56043 | 73.41245 | 34819 ft | 516 kts | 130° |
| 2026-05-03 21:37 | 12.51485 | 73.46927 | 34825 ft | 517 kts | 130° |
| 2026-05-03 21:37 | 12.46921 | 73.52613 | 34825 ft | 517 kts | 130° |
| 2026-05-03 21:38 | 12.42353 | 73.58300 | 34824 ft | 517 kts | 130° |
| 2026-05-03 21:38 | 12.37789 | 73.63979 | 34828 ft | 517 kts | 130° |
| 2026-05-03 21:39 | 12.33213 | 73.69670 | 34821 ft | 517 kts | 130° |
| 2026-05-03 21:39 | 12.28674 | 73.75311 | 34824 ft | 517 kts | 130° |
| 2026-05-03 21:40 | 12.24105 | 73.80986 | 34821 ft | 517 kts | 130° |
| 2026-05-03 21:40 | 12.19536 | 73.86658 | 34826 ft | 516 kts | 130° |
| 2026-05-03 21:41 | 12.14969 | 73.92324 | 34825 ft | 516 kts | 130° |
| 2026-05-03 21:41 | 12.10410 | 73.97976 | 34826 ft | 516 kts | 130° |
| 2026-05-03 21:42 | 12.05845 | 74.03633 | 34823 ft | 515 kts | 130° |
| 2026-05-03 21:42 | 12.01286 | 74.09278 | 34821 ft | 515 kts | 130° |
| 2026-05-03 21:43 | 11.96726 | 74.14922 | 34823 ft | 515 kts | 130° |
| 2026-05-03 21:43 | 11.92167 | 74.20561 | 34824 ft | 514 kts | 130° |
| 2026-05-03 21:44 | 11.87616 | 74.26188 | 34826 ft | 514 kts | 130° |
| 2026-05-03 21:44 | 11.83061 | 74.31815 | 34827 ft | 514 kts | 130° |
| 2026-05-03 21:45 | 11.78541 | 74.37397 | 34830 ft | 513 kts | 130° |
| 2026-05-03 21:45 | 11.73995 | 74.43007 | 34826 ft | 513 kts | 130° |
| 2026-05-03 21:46 | 11.69450 | 74.48613 | 34820 ft | 513 kts | 130° |
| 2026-05-03 21:46 | 11.64909 | 74.54210 | 34823 ft | 512 kts | 130° |
| 2026-05-03 21:47 | 11.60363 | 74.59810 | 34822 ft | 512 kts | 130° |
| 2026-05-03 21:47 | 11.55818 | 74.65406 | 34827 ft | 512 kts | 130° |
| 2026-05-03 21:48 | 11.51270 | 74.71004 | 34829 ft | 512 kts | 130° |
| 2026-05-03 21:48 | 11.46727 | 74.76590 | 34828 ft | 512 kts | 130° |
| 2026-05-03 21:49 | 11.42187 | 74.82172 | 34827 ft | 511 kts | 130° |
| 2026-05-03 21:49 | 11.37647 | 74.87751 | 34827 ft | 511 kts | 130° |
| 2026-05-03 21:50 | 11.33110 | 74.93323 | 34826 ft | 511 kts | 130° |
| 2026-05-03 21:50 | 11.28599 | 74.98856 | 34826 ft | 511 kts | 130° |
| 2026-05-03 21:51 | 11.24061 | 75.04421 | 34822 ft | 511 kts | 130° |
| 2026-05-03 21:51 | 11.19521 | 75.09986 | 34822 ft | 511 kts | 130° |
| 2026-05-03 21:52 | 11.14980 | 75.15550 | 34824 ft | 511 kts | 130° |
| 2026-05-03 21:52 | 11.10440 | 75.21110 | 34824 ft | 511 kts | 130° |
| 2026-05-03 21:53 | 11.05894 | 75.26673 | 34827 ft | 511 kts | 130° |
| 2026-05-03 21:53 | 11.01354 | 75.32227 | 34827 ft | 511 kts | 130° |
| 2026-05-03 21:54 | 10.96803 | 75.37790 | 34827 ft | 511 kts | 130° |
| 2026-05-03 21:54 | 10.92257 | 75.43345 | 34826 ft | 511 kts | 130° |
| 2026-05-03 21:55 | 10.87710 | 75.48897 | 34832 ft | 511 kts | 130° |
| 2026-05-03 21:55 | 10.83926 | 75.53516 | 34833 ft | 511 kts | 130° |
| 2026-05-03 21:56 | 10.79380 | 75.59063 | 34835 ft | 510 kts | 130° |
| 2026-05-03 21:56 | 10.74841 | 75.64599 | 34836 ft | 509 kts | 130° |
| 2026-05-03 21:57 | 10.70301 | 75.70132 | 34835 ft | 508 kts | 130° |
| 2026-05-03 21:57 | 10.65777 | 75.75644 | 34834 ft | 507 kts | 130° |
| 2026-05-03 21:58 | 10.61257 | 75.81147 | 34828 ft | 506 kts | 130° |
| 2026-05-03 21:58 | 10.56748 | 75.86635 | 34825 ft | 505 kts | 131° |
| 2026-05-03 21:59 | 10.52242 | 75.92115 | 34820 ft | 505 kts | 131° |
| 2026-05-03 21:59 | 10.47742 | 75.97586 | 34821 ft | 504 kts | 131° |
| 2026-05-03 22:00 | 10.43245 | 76.03051 | 34814 ft | 503 kts | 131° |
| 2026-05-03 22:00 | 10.38781 | 76.08472 | 34818 ft | 503 kts | 131° |
| 2026-05-03 22:01 | 10.34289 | 76.13925 | 34824 ft | 503 kts | 131° |
| 2026-05-03 22:01 | 10.29794 | 76.19379 | 34833 ft | 503 kts | 131° |
| 2026-05-03 22:02 | 10.25300 | 76.24830 | 34845 ft | 503 kts | 131° |
| 2026-05-03 22:02 | 10.20807 | 76.30275 | 34852 ft | 503 kts | 131° |
| 2026-05-03 22:03 | 10.16311 | 76.35723 | 34855 ft | 503 kts | 131° |
| 2026-05-03 22:03 | 10.11811 | 76.41159 | 34859 ft | 503 kts | 131° |
| 2026-05-03 22:04 | 10.07299 | 76.46584 | 34859 ft | 503 kts | 131° |
| 2026-05-03 22:04 | 10.02785 | 76.52012 | 34857 ft | 503 kts | 131° |
| 2026-05-03 22:05 | 9.98273 | 76.57438 | 34857 ft | 503 kts | 131° |
| 2026-05-03 22:05 | 9.93796 | 76.62819 | 34858 ft | 502 kts | 131° |
| 2026-05-03 22:06 | 9.89288 | 76.68235 | 34866 ft | 502 kts | 131° |
| 2026-05-03 22:06 | 9.84780 | 76.73648 | 34869 ft | 502 kts | 131° |
| 2026-05-03 22:07 | 9.80279 | 76.79052 | 34873 ft | 501 kts | 131° |
| 2026-05-03 22:07 | 9.75775 | 76.84455 | 34875 ft | 501 kts | 131° |
| 2026-05-03 22:08 | 9.71274 | 76.89852 | 34882 ft | 501 kts | 131° |
| 2026-05-03 22:08 | 9.66768 | 76.95254 | 34882 ft | 502 kts | 131° |
| 2026-05-03 22:09 | 9.62261 | 77.00654 | 34884 ft | 502 kts | 131° |
| 2026-05-03 22:10 | 9.55495 | 77.08756 | 34893 ft | 502 kts | 131° |
| 2026-05-03 22:10 | 9.51012 | 77.14121 | 34889 ft | 502 kts | 131° |
| 2026-05-03 22:11 | 9.46490 | 77.19530 | 34884 ft | 502 kts | 131° |
| 2026-05-03 22:11 | 9.41972 | 77.24931 | 34877 ft | 502 kts | 131° |
| 2026-05-03 22:12 | 9.37461 | 77.30324 | 34877 ft | 502 kts | 131° |
| 2026-05-03 22:12 | 9.32944 | 77.35721 | 34862 ft | 502 kts | 131° |
| 2026-05-03 22:13 | 9.28427 | 77.41113 | 34856 ft | 502 kts | 131° |
| 2026-05-03 22:13 | 9.23915 | 77.46499 | 34842 ft | 501 kts | 131° |
| 2026-05-03 22:14 | 9.19409 | 77.51876 | 34828 ft | 501 kts | 131° |
| 2026-05-03 22:14 | 9.14905 | 77.57246 | 34818 ft | 500 kts | 131° |
| 2026-05-03 22:15 | 9.10402 | 77.62614 | 34802 ft | 500 kts | 131° |
| 2026-05-03 22:15 | 9.05933 | 77.67938 | 34798 ft | 500 kts | 131° |
| 2026-05-03 22:16 | 9.01436 | 77.73294 | 34790 ft | 500 kts | 131° |
| 2026-05-03 22:16 | 8.96937 | 77.78650 | 34787 ft | 500 kts | 131° |
| 2026-05-03 22:17 | 8.92434 | 77.84008 | 34791 ft | 500 kts | 131° |
| 2026-05-03 22:17 | 8.87929 | 77.89367 | 34789 ft | 500 kts | 131° |
| 2026-05-03 22:18 | 8.83426 | 77.94721 | 34792 ft | 500 kts | 131° |
| 2026-05-03 22:18 | 8.78919 | 78.00077 | 34792 ft | 500 kts | 131° |
| 2026-05-03 22:19 | 8.74409 | 78.05435 | 34792 ft | 500 kts | 131° |
| 2026-05-03 22:19 | 8.69907 | 78.10781 | 34791 ft | 499 kts | 131° |
| 2026-05-03 22:20 | 8.65404 | 78.16127 | 34789 ft | 499 kts | 131° |
| 2026-05-03 22:20 | 8.60910 | 78.21460 | 34791 ft | 499 kts | 131° |
| 2026-05-03 22:21 | 8.56409 | 78.26798 | 34794 ft | 498 kts | 131° |
| 2026-05-03 22:21 | 8.51950 | 78.32085 | 34791 ft | 497 kts | 132° |
| 2026-05-03 22:22 | 8.47470 | 78.37394 | 34791 ft | 496 kts | 132° |
| 2026-05-03 22:22 | 8.42997 | 78.42693 | 34788 ft | 495 kts | 132° |
| 2026-05-03 22:23 | 8.38526 | 78.47988 | 34787 ft | 494 kts | 132° |
| 2026-05-03 22:23 | 8.34060 | 78.53274 | 34785 ft | 494 kts | 132° |
| 2026-05-03 22:24 | 8.29605 | 78.58544 | 34787 ft | 493 kts | 132° |
| 2026-05-03 22:24 | 8.25094 | 78.63763 | 34785 ft | 493 kts | 134° |
| 2026-05-03 22:25 | 8.20490 | 78.68892 | 34788 ft | 493 kts | 134° |
| 2026-05-03 22:25 | 8.15903 | 78.74028 | 34788 ft | 493 kts | 133° |
| 2026-05-03 22:26 | 8.11315 | 78.79183 | 34796 ft | 493 kts | 133° |
| 2026-05-03 22:26 | 8.06730 | 78.84338 | 34801 ft | 493 kts | 133° |
| 2026-05-03 22:27 | 8.02148 | 78.89487 | 34804 ft | 494 kts | 133° |
| 2026-05-03 22:27 | 7.97552 | 78.94648 | 34803 ft | 494 kts | 133° |
| 2026-05-03 22:28 | 7.92959 | 78.99805 | 34810 ft | 494 kts | 133° |
| 2026-05-03 22:28 | 7.88362 | 79.04963 | 34812 ft | 494 kts | 133° |
| 2026-05-03 22:29 | 7.83792 | 79.10090 | 34815 ft | 494 kts | 133° |
| 2026-05-03 22:29 | 7.79196 | 79.15245 | 34813 ft | 494 kts | 133° |
| 2026-05-03 22:30 | 7.74593 | 79.20404 | 34814 ft | 494 kts | 133° |
| 2026-05-03 22:30 | 7.69992 | 79.25565 | 34811 ft | 494 kts | 133° |
| 2026-05-03 22:31 | 7.65437 | 79.30756 | 34814 ft | 494 kts | 133° |
| 2026-05-03 22:31 | 7.60880 | 79.35960 | 34812 ft | 495 kts | 133° |
| 2026-05-03 22:32 | 7.56354 | 79.41117 | 34817 ft | 495 kts | 133° |
| 2026-05-03 22:32 | 7.51788 | 79.46314 | 34819 ft | 495 kts | 133° |
| 2026-05-03 22:33 | 7.47220 | 79.51511 | 34820 ft | 495 kts | 133° |
| 2026-05-03 22:33 | 7.42643 | 79.56717 | 34828 ft | 496 kts | 133° |
| 2026-05-03 22:34 | 7.38067 | 79.61920 | 34827 ft | 496 kts | 133° |
| 2026-05-03 22:34 | 7.33490 | 79.67122 | 34835 ft | 496 kts | 133° |
| 2026-05-03 22:35 | 7.28910 | 79.72326 | 34833 ft | 496 kts | 133° |
| 2026-05-03 22:35 | 7.24325 | 79.77533 | 34834 ft | 496 kts | 133° |
| 2026-05-03 22:36 | 7.19740 | 79.82739 | 34833 ft | 496 kts | 132° |
| 2026-05-03 22:36 | 7.15190 | 79.87905 | 34828 ft | 496 kts | 132° |
| 2026-05-03 22:37 | 7.10595 | 79.93145 | 34835 ft | 496 kts | 132° |
| 2026-05-03 22:37 | 7.06058 | 79.98323 | 34836 ft | 496 kts | 132° |
| 2026-05-03 22:38 | 7.01496 | 80.03525 | 34837 ft | 496 kts | 132° |
| 2026-05-03 22:38 | 6.96930 | 80.08728 | 34841 ft | 495 kts | 132° |
| 2026-05-03 22:39 | 6.92374 | 80.13918 | 34850 ft | 495 kts | 132° |
| 2026-05-03 22:39 | 6.87812 | 80.19113 | 34857 ft | 495 kts | 132° |
| 2026-05-03 22:40 | 6.83249 | 80.24307 | 34865 ft | 495 kts | 132° |
| 2026-05-03 22:40 | 6.78689 | 80.29497 | 34864 ft | 495 kts | 132° |
| 2026-05-03 22:41 | 6.74127 | 80.34688 | 34875 ft | 495 kts | 132° |
| 2026-05-03 22:41 | 6.69567 | 80.39875 | 34877 ft | 495 kts | 132° |
| 2026-05-03 22:42 | 6.65004 | 80.45063 | 34876 ft | 495 kts | 132° |
| 2026-05-03 22:42 | 6.60441 | 80.50250 | 34882 ft | 495 kts | 132° |
| 2026-05-03 22:43 | 6.55897 | 80.55413 | 34881 ft | 495 kts | 132° |
| 2026-05-03 22:43 | 6.51331 | 80.60601 | 34877 ft | 495 kts | 132° |
| 2026-05-03 22:44 | 6.46768 | 80.65791 | 34868 ft | 495 kts | 131° |
| 2026-05-03 22:44 | 6.43011 | 80.70188 | 34861 ft | 495 kts | 131° |
| 2026-05-03 22:45 | 6.38536 | 80.75456 | 34860 ft | 495 kts | 131° |
| 2026-05-03 22:45 | 6.34074 | 80.80686 | 34852 ft | 495 kts | 131° |
| 2026-05-03 22:46 | 6.29585 | 80.85938 | 34849 ft | 495 kts | 131° |
| 2026-05-03 22:46 | 6.25100 | 80.91183 | 34854 ft | 495 kts | 131° |
| 2026-05-03 22:47 | 6.20605 | 80.96438 | 34843 ft | 495 kts | 131° |
| 2026-05-03 22:47 | 6.16110 | 81.01693 | 34844 ft | 495 kts | 131° |
| 2026-05-03 22:48 | 6.11615 | 81.06945 | 34842 ft | 495 kts | 131° |
| 2026-05-03 22:48 | 6.07111 | 81.12173 | 34841 ft | 495 kts | 131° |
| 2026-05-03 22:49 | 6.02600 | 81.17386 | 34846 ft | 494 kts | 131° |
| 2026-05-03 22:49 | 5.98092 | 81.22602 | 34842 ft | 494 kts | 131° |
| 2026-05-03 22:50 | 5.93597 | 81.27803 | 34842 ft | 493 kts | 131° |
| 2026-05-03 22:50 | 5.89099 | 81.33007 | 34841 ft | 493 kts | 131° |
| 2026-05-03 22:51 | 5.84610 | 81.38198 | 34840 ft | 492 kts | 131° |
| 2026-05-03 22:51 | 5.80117 | 81.43392 | 34828 ft | 492 kts | 131° |
| 2026-05-03 22:52 | 5.75656 | 81.48549 | 34829 ft | 492 kts | 131° |
| 2026-05-03 22:52 | 5.71151 | 81.53754 | 34833 ft | 493 kts | 131° |
| 2026-05-03 22:53 | 5.66656 | 81.58947 | 34831 ft | 493 kts | 131° |
| 2026-05-03 22:53 | 5.62142 | 81.64161 | 34828 ft | 494 kts | 131° |
| 2026-05-03 22:54 | 5.57644 | 81.69385 | 34833 ft | 495 kts | 131° |
| 2026-05-03 22:54 | 5.53136 | 81.74631 | 34835 ft | 496 kts | 131° |
| 2026-05-03 22:55 | 5.48623 | 81.79877 | 34839 ft | 497 kts | 131° |
| 2026-05-03 22:55 | 5.44101 | 81.85130 | 34849 ft | 497 kts | 131° |
| 2026-05-03 22:56 | 5.39602 | 81.90355 | 34846 ft | 498 kts | 131° |
| 2026-05-03 22:56 | 5.35076 | 81.95610 | 34846 ft | 498 kts | 131° |
| 2026-05-03 22:57 | 5.30545 | 82.00870 | 34847 ft | 498 kts | 131° |
| 2026-05-03 22:57 | 5.26016 | 82.06125 | 34840 ft | 497 kts | 131° |
| 2026-05-03 22:58 | 5.21490 | 82.11376 | 34840 ft | 497 kts | 131° |
| 2026-05-03 22:58 | 5.16962 | 82.16629 | 34836 ft | 498 kts | 131° |
| 2026-05-03 22:59 | 5.12432 | 82.21882 | 34838 ft | 498 kts | 131° |
| 2026-05-03 22:59 | 5.07899 | 82.27137 | 34837 ft | 498 kts | 131° |
| 2026-05-03 23:00 | 5.03394 | 82.32359 | 34836 ft | 498 kts | 131° |
| 2026-05-03 23:00 | 4.98859 | 82.37614 | 34833 ft | 498 kts | 131° |
| 2026-05-03 23:01 | 4.94319 | 82.42877 | 34834 ft | 498 kts | 131° |
| 2026-05-03 23:01 | 4.89783 | 82.48129 | 34833 ft | 499 kts | 131° |
| 2026-05-03 23:02 | 4.85241 | 82.53386 | 34835 ft | 499 kts | 131° |
| 2026-05-03 23:02 | 4.80685 | 82.58661 | 34832 ft | 500 kts | 131° |
| 2026-05-03 23:03 | 4.76127 | 82.63937 | 34832 ft | 501 kts | 131° |
| 2026-05-03 23:03 | 4.71565 | 82.69216 | 34839 ft | 501 kts | 131° |
| 2026-05-03 23:04 | 4.66996 | 82.74504 | 34834 ft | 502 kts | 131° |
| 2026-05-03 23:04 | 4.62415 | 82.79803 | 34834 ft | 502 kts | 131° |
| 2026-05-03 23:05 | 4.57868 | 82.85061 | 34837 ft | 503 kts | 131° |
| 2026-05-03 23:05 | 4.53285 | 82.90359 | 34837 ft | 503 kts | 131° |
| 2026-05-03 23:06 | 4.48694 | 82.95667 | 34839 ft | 504 kts | 131° |
| 2026-05-03 23:06 | 4.44093 | 83.00984 | 34834 ft | 505 kts | 131° |
| 2026-05-03 23:07 | 4.39488 | 83.06306 | 34832 ft | 506 kts | 131° |
| 2026-05-03 23:07 | 4.34875 | 83.11635 | 34835 ft | 506 kts | 131° |
| 2026-05-03 23:08 | 4.30252 | 83.16975 | 34835 ft | 507 kts | 131° |
| 2026-05-03 23:08 | 4.25631 | 83.22312 | 34835 ft | 508 kts | 131° |
| 2026-05-03 23:09 | 4.20992 | 83.27667 | 34837 ft | 509 kts | 131° |
| 2026-05-03 23:09 | 4.16348 | 83.33028 | 34837 ft | 509 kts | 131° |
| 2026-05-03 23:10 | 4.11702 | 83.38391 | 34836 ft | 510 kts | 131° |
| 2026-05-03 23:10 | 4.07054 | 83.43754 | 34838 ft | 510 kts | 131° |
| 2026-05-03 23:11 | 4.02403 | 83.49120 | 34833 ft | 510 kts | 131° |
| 2026-05-03 23:11 | 3.97745 | 83.54493 | 34828 ft | 510 kts | 131° |
| 2026-05-03 23:12 | 3.93090 | 83.59861 | 34825 ft | 511 kts | 131° |
| 2026-05-03 23:12 | 3.88426 | 83.65239 | 34824 ft | 511 kts | 131° |
| 2026-05-03 23:13 | 3.83785 | 83.70589 | 34827 ft | 512 kts | 131° |
| 2026-05-03 23:13 | 3.79114 | 83.75973 | 34849 ft | 512 kts | 131° |
| 2026-05-03 23:14 | 3.74499 | 83.81285 | 34826 ft | 495 kts | 129° |
| 2026-05-03 23:14 | 3.70017 | 83.86453 | 34827 ft | 494 kts | 129° |
| 2026-05-03 23:15 | 3.65495 | 83.91666 | 34829 ft | 495 kts | 129° |
| 2026-05-03 23:15 | 3.60980 | 83.96866 | 34826 ft | 495 kts | 129° |
| 2026-05-03 23:16 | 3.56453 | 84.02079 | 34837 ft | 497 kts | 129° |
| 2026-05-03 23:16 | 3.51914 | 84.07298 | 34824 ft | 496 kts | 130° |
| 2026-05-03 23:17 | 3.47291 | 84.12425 | 34820 ft | 496 kts | 130° |
| 2026-05-03 23:17 | 3.42649 | 84.17545 | 34812 ft | 496 kts | 130° |
| 2026-05-03 23:18 | 3.38016 | 84.22677 | 34811 ft | 497 kts | 130° |
| 2026-05-03 23:18 | 3.33379 | 84.27819 | 34819 ft | 498 kts | 130° |
| 2026-05-03 23:19 | 3.28732 | 84.32973 | 34822 ft | 499 kts | 130° |
| 2026-05-03 23:19 | 3.24079 | 84.38133 | 34831 ft | 500 kts | 130° |
| 2026-05-03 23:20 | 3.19415 | 84.43302 | 34831 ft | 501 kts | 130° |
| 2026-05-03 23:20 | 3.14742 | 84.48482 | 34831 ft | 501 kts | 130° |
| 2026-05-03 23:21 | 3.10064 | 84.53667 | 34830 ft | 502 kts | 130° |
| 2026-05-03 23:21 | 3.05388 | 84.58850 | 34838 ft | 502 kts | 130° |
| 2026-05-03 23:22 | 2.98361 | 84.66637 | 34833 ft | 503 kts | 130° |
| 2026-05-03 23:22 | 2.93668 | 84.71833 | 34834 ft | 503 kts | 130° |
| 2026-05-03 23:23 | 2.88982 | 84.77023 | 34833 ft | 503 kts | 130° |
| 2026-05-03 23:23 | 2.84284 | 84.82225 | 34834 ft | 503 kts | 130° |
| 2026-05-03 23:24 | 2.79595 | 84.87417 | 34829 ft | 503 kts | 130° |
| 2026-05-03 23:24 | 2.74896 | 84.92620 | 34828 ft | 504 kts | 130° |
| 2026-05-03 23:25 | 2.70223 | 84.97792 | 34829 ft | 505 kts | 130° |
| 2026-05-03 23:25 | 2.65513 | 85.03006 | 34834 ft | 505 kts | 130° |
| 2026-05-03 23:26 | 2.60801 | 85.08220 | 34836 ft | 505 kts | 130° |
| 2026-05-03 23:26 | 2.56094 | 85.13430 | 34843 ft | 505 kts | 130° |
| 2026-05-03 23:27 | 2.51380 | 85.18647 | 34839 ft | 505 kts | 130° |
| 2026-05-03 23:27 | 2.46672 | 85.23855 | 34841 ft | 504 kts | 130° |
| 2026-05-03 23:28 | 2.41970 | 85.29056 | 34840 ft | 504 kts | 130° |
| 2026-05-03 23:28 | 2.38066 | 85.33374 | 34837 ft | 503 kts | 130° |
| 2026-05-03 23:29 | 2.33375 | 85.38563 | 34832 ft | 503 kts | 130° |
| 2026-05-03 23:29 | 2.28682 | 85.43752 | 34831 ft | 502 kts | 130° |
| 2026-05-03 23:30 | 2.24002 | 85.48928 | 34830 ft | 502 kts | 130° |
| 2026-05-03 23:30 | 2.19317 | 85.54107 | 34830 ft | 502 kts | 130° |
| 2026-05-03 23:31 | 2.14632 | 85.59287 | 34829 ft | 502 kts | 130° |
| 2026-05-03 23:31 | 2.09942 | 85.64471 | 34834 ft | 502 kts | 130° |
| 2026-05-03 23:32 | 2.05259 | 85.69647 | 34834 ft | 502 kts | 130° |
| 2026-05-03 23:32 | 2.00573 | 85.74826 | 34838 ft | 502 kts | 130° |
| 2026-05-03 23:33 | 1.95887 | 85.80005 | 34839 ft | 502 kts | 130° |
| 2026-05-03 23:33 | 1.91204 | 85.85179 | 34835 ft | 502 kts | 130° |
| 2026-05-03 23:34 | 1.86516 | 85.90359 | 34836 ft | 502 kts | 130° |
| 2026-05-03 23:34 | 1.81861 | 85.95503 | 34834 ft | 502 kts | 130° |
| 2026-05-03 23:35 | 1.77178 | 86.00676 | 34830 ft | 502 kts | 131° |
| 2026-05-03 23:35 | 1.72497 | 86.05847 | 34839 ft | 502 kts | 130° |
| 2026-05-03 23:36 | 1.67810 | 86.11024 | 34835 ft | 502 kts | 131° |
| 2026-05-03 23:36 | 1.63126 | 86.16197 | 34839 ft | 502 kts | 131° |
| 2026-05-03 23:37 | 1.58362 | 86.21294 | 34837 ft | 502 kts | 133° |
| 2026-05-03 23:37 | 1.53510 | 86.26320 | 34843 ft | 502 kts | 133° |
| 2026-05-03 23:38 | 1.48682 | 86.31356 | 34837 ft | 502 kts | 133° |
| 2026-05-03 23:38 | 1.43862 | 86.36401 | 34838 ft | 501 kts | 133° |
| 2026-05-03 23:39 | 1.39048 | 86.41442 | 34838 ft | 501 kts | 133° |
| 2026-05-03 23:39 | 1.34235 | 86.46481 | 34839 ft | 501 kts | 133° |
| 2026-05-03 23:40 | 1.29421 | 86.51519 | 34837 ft | 501 kts | 133° |
| 2026-05-03 23:40 | 1.24638 | 86.56526 | 34837 ft | 501 kts | 133° |
| 2026-05-03 23:41 | 1.19795 | 86.61596 | 34841 ft | 501 kts | 133° |
| 2026-05-03 23:41 | 1.15014 | 86.66601 | 34843 ft | 501 kts | 133° |
| 2026-05-03 23:42 | 1.10201 | 86.71638 | 34844 ft | 500 kts | 133° |
| 2026-05-03 23:42 | 1.05395 | 86.76668 | 34842 ft | 500 kts | 133° |
| 2026-05-03 23:43 | 1.00598 | 86.81688 | 34839 ft | 499 kts | 133° |
| 2026-05-03 23:43 | 0.95803 | 86.86706 | 34837 ft | 499 kts | 133° |
| 2026-05-03 23:44 | 0.91016 | 86.91715 | 34834 ft | 498 kts | 133° |
| 2026-05-03 23:44 | 0.86233 | 86.96720 | 34834 ft | 498 kts | 133° |
| 2026-05-03 23:45 | 0.81448 | 87.01727 | 34832 ft | 498 kts | 133° |
| 2026-05-03 23:45 | 0.76670 | 87.06726 | 34830 ft | 498 kts | 133° |
| 2026-05-03 23:46 | 0.71883 | 87.11735 | 34830 ft | 498 kts | 133° |
| 2026-05-03 23:46 | 0.67101 | 87.16738 | 34831 ft | 498 kts | 132° |
| 2026-05-03 23:47 | 0.62305 | 87.21756 | 34829 ft | 499 kts | 132° |
| 2026-05-03 23:47 | 0.57504 | 87.26778 | 34834 ft | 499 kts | 132° |
| 2026-05-03 23:48 | 0.52700 | 87.31804 | 34838 ft | 500 kts | 132° |
| 2026-05-03 23:48 | 0.47894 | 87.36833 | 34842 ft | 500 kts | 132° |
| 2026-05-03 23:49 | 0.43090 | 87.41858 | 34848 ft | 501 kts | 132° |
| 2026-05-03 23:49 | 0.38306 | 87.46863 | 34847 ft | 501 kts | 132° |
| 2026-05-03 23:50 | 0.34275 | 87.51082 | 34838 ft | 502 kts | 132° |
| 2026-05-03 23:50 | 0.28670 | 87.56946 | 34840 ft | 502 kts | 132° |
| 2026-05-03 23:51 | 0.23837 | 87.62003 | 34837 ft | 503 kts | 132° |
| 2026-05-03 23:51 | 0.18999 | 87.67065 | 34837 ft | 504 kts | 132° |
| 2026-05-03 23:52 | 0.14149 | 87.72139 | 34837 ft | 505 kts | 132° |
| 2026-05-03 23:52 | 0.09285 | 87.77227 | 34838 ft | 507 kts | 132° |
| 2026-05-03 23:53 | 0.04409 | 87.82329 | 34841 ft | 508 kts | 132° |
| 2026-05-03 23:53 | -0.00472 | 87.87436 | 34848 ft | 509 kts | 132° |
| 2026-05-03 23:54 | -0.05369 | 87.92559 | 34862 ft | 509 kts | 132° |
| 2026-05-03 23:54 | -0.10263 | 87.97680 | 34870 ft | 509 kts | 132° |
| 2026-05-03 23:55 | -0.15151 | 88.02792 | 34868 ft | 508 kts | 132° |
| 2026-05-03 23:55 | -0.20028 | 88.07896 | 34865 ft | 507 kts | 132° |
| 2026-05-03 23:56 | -0.24888 | 88.12980 | 34860 ft | 506 kts | 132° |
| 2026-05-03 23:56 | -0.29742 | 88.18059 | 34854 ft | 505 kts | 132° |
| 2026-05-03 23:57 | -0.34591 | 88.23132 | 34852 ft | 504 kts | 132° |
| 2026-05-03 23:57 | -0.39429 | 88.28194 | 34842 ft | 503 kts | 132° |
| 2026-05-03 23:58 | -0.44259 | 88.33248 | 34838 ft | 503 kts | 132° |
| 2026-05-03 23:58 | -0.49058 | 88.38269 | 34843 ft | 503 kts | 132° |
| 2026-05-03 23:59 | -0.53888 | 88.43323 | 34843 ft | 503 kts | 132° |
| 2026-05-03 23:59 | -0.58723 | 88.48383 | 34851 ft | 503 kts | 132° |
| 2026-05-04 00:00 | -0.63557 | 88.53441 | 34854 ft | 503 kts | 132° |
| 2026-05-04 00:00 | -0.68391 | 88.58499 | 34860 ft | 503 kts | 132° |
| 2026-05-04 00:01 | -0.73222 | 88.63555 | 34867 ft | 503 kts | 132° |
| 2026-05-04 00:01 | -0.78050 | 88.68608 | 34868 ft | 502 kts | 132° |
| 2026-05-04 00:02 | -0.82880 | 88.73663 | 35223 ft | 503 kts | 132° |
| 2026-05-04 00:02 | -0.85292 | 88.76186 | 35703 ft | 500 kts | 132° |
| 2026-05-04 00:02 | -0.87693 | 88.78699 | 36142 ft | 499 kts | 132° |
| 2026-05-04 00:03 | -0.90059 | 88.81175 | 36539 ft | 498 kts | 132° |
| 2026-05-04 00:03 | -0.92454 | 88.83682 | 36819 ft | 500 kts | 132° |
| 2026-05-04 00:03 | -0.97220 | 88.88671 | 36865 ft | 492 kts | 132° |
| 2026-05-04 00:04 | -1.01956 | 88.93628 | 36865 ft | 494 kts | 132° |
| 2026-05-04 00:04 | -1.06705 | 88.98594 | 36860 ft | 494 kts | 132° |
| 2026-05-04 00:05 | -1.11455 | 89.03557 | 36868 ft | 494 kts | 132° |
| 2026-05-04 00:05 | -1.16204 | 89.08520 | 36873 ft | 494 kts | 132° |
| 2026-05-04 00:06 | -1.20951 | 89.13482 | 36870 ft | 494 kts | 132° |
| 2026-05-04 00:06 | -1.25697 | 89.18444 | 36865 ft | 494 kts | 132° |
| 2026-05-04 00:07 | -1.30443 | 89.23405 | 36870 ft | 494 kts | 132° |
| 2026-05-04 00:07 | -1.35161 | 89.28338 | 36865 ft | 494 kts | 132° |
| 2026-05-04 00:08 | -1.39938 | 89.33332 | 36865 ft | 494 kts | 132° |
| 2026-05-04 00:08 | -1.44661 | 89.38270 | 36867 ft | 495 kts | 133° |
| 2026-05-04 00:09 | -1.49419 | 89.43245 | 36871 ft | 495 kts | 133° |
| 2026-05-04 00:09 | -1.54180 | 89.48224 | 36871 ft | 495 kts | 133° |
| 2026-05-04 00:10 | -1.58945 | 89.53207 | 36873 ft | 496 kts | 133° |
| 2026-05-04 00:10 | -1.63709 | 89.58190 | 36875 ft | 496 kts | 133° |
| 2026-05-04 00:11 | -1.68478 | 89.63178 | 36882 ft | 496 kts | 133° |
| 2026-05-04 00:11 | -1.73249 | 89.68169 | 36880 ft | 496 kts | 133° |
| 2026-05-04 00:12 | -1.78023 | 89.73163 | 36883 ft | 496 kts | 133° |
| 2026-05-04 00:12 | -1.82790 | 89.78150 | 36881 ft | 496 kts | 133° |
| 2026-05-04 00:13 | -1.87558 | 89.83139 | 36880 ft | 496 kts | 133° |
| 2026-05-04 00:13 | -1.92326 | 89.88128 | 36880 ft | 496 kts | 133° |
| 2026-05-04 00:14 | -1.97088 | 89.93111 | 36882 ft | 496 kts | 133° |
| 2026-05-04 00:14 | -2.01860 | 89.98089 | 36879 ft | 496 kts | 133° |
| 2026-05-04 00:15 | -2.06706 | 90.03001 | 36881 ft | 496 kts | 134° |
| 2026-05-04 00:15 | -2.10731 | 90.07075 | 36881 ft | 496 kts | 134° |
| 2026-05-04 00:16 | -2.15576 | 90.11996 | 36882 ft | 496 kts | 134° |
| 2026-05-04 00:16 | -2.20419 | 90.16921 | 36880 ft | 496 kts | 134° |
| 2026-05-04 00:17 | -2.25222 | 90.21807 | 36881 ft | 496 kts | 134° |
| 2026-05-04 00:17 | -2.30070 | 90.26738 | 36883 ft | 497 kts | 134° |
| 2026-05-04 00:18 | -2.34913 | 90.31665 | 36884 ft | 497 kts | 134° |
| 2026-05-04 00:18 | -2.39762 | 90.36599 | 36885 ft | 497 kts | 134° |
| 2026-05-04 00:19 | -2.44612 | 90.41533 | 36887 ft | 497 kts | 134° |
| 2026-05-04 00:19 | -2.49457 | 90.46464 | 36888 ft | 497 kts | 134° |
| 2026-05-04 00:20 | -2.54302 | 90.51394 | 36890 ft | 497 kts | 134° |
| 2026-05-04 00:20 | -2.59151 | 90.56331 | 36890 ft | 497 kts | 134° |
| 2026-05-04 00:21 | -2.63999 | 90.61266 | 36892 ft | 497 kts | 134° |
| 2026-05-04 00:21 | -2.68842 | 90.66196 | 36890 ft | 497 kts | 134° |
| 2026-05-04 00:22 | -2.73684 | 90.71127 | 36891 ft | 497 kts | 133° |
| 2026-05-04 00:22 | -2.78524 | 90.76055 | 36891 ft | 496 kts | 133° |
| 2026-05-04 00:23 | -2.83328 | 90.80948 | 36888 ft | 496 kts | 133° |
| 2026-05-04 00:23 | -2.88167 | 90.85877 | 36890 ft | 496 kts | 133° |
| 2026-05-04 00:24 | -2.93000 | 90.90801 | 36888 ft | 496 kts | 133° |
| 2026-05-04 00:24 | -2.97842 | 90.95735 | 36891 ft | 496 kts | 133° |
| 2026-05-04 00:25 | -3.02672 | 91.00657 | 36892 ft | 496 kts | 134° |
| 2026-05-04 00:25 | -3.07508 | 91.05585 | 36888 ft | 496 kts | 133° |
| 2026-05-04 00:26 | -3.12342 | 91.10513 | 36889 ft | 496 kts | 134° |
| 2026-05-04 00:26 | -3.17188 | 91.15452 | 36888 ft | 496 kts | 134° |
| 2026-05-04 00:27 | -3.22022 | 91.20381 | 36888 ft | 497 kts | 134° |
| 2026-05-04 00:27 | -3.26833 | 91.25287 | 36890 ft | 497 kts | 133° |
| 2026-05-04 00:28 | -3.31673 | 91.30223 | 36893 ft | 497 kts | 133° |
| 2026-05-04 00:28 | -3.36522 | 91.35170 | 36892 ft | 497 kts | 133° |
| 2026-05-04 00:29 | -3.41361 | 91.40106 | 36890 ft | 497 kts | 133° |
| 2026-05-04 00:29 | -3.46211 | 91.45054 | 36896 ft | 498 kts | 133° |
| 2026-05-04 00:30 | -3.51058 | 91.50001 | 36896 ft | 498 kts | 133° |
| 2026-05-04 00:30 | -3.55909 | 91.54951 | 36900 ft | 498 kts | 133° |
| 2026-05-04 00:31 | -3.60754 | 91.59898 | 36901 ft | 498 kts | 133° |
| 2026-05-04 00:31 | -3.65606 | 91.64852 | 36901 ft | 498 kts | 133° |
| 2026-05-04 00:32 | -3.70456 | 91.69804 | 36898 ft | 498 kts | 133° |
| 2026-05-04 00:32 | -3.75299 | 91.74751 | 36899 ft | 498 kts | 133° |
| 2026-05-04 00:33 | -3.82571 | 91.82179 | 36901 ft | 498 kts | 133° |
| 2026-05-04 00:34 | -3.87415 | 91.87128 | 36906 ft | 498 kts | 133° |
| 2026-05-04 00:34 | -3.92258 | 91.92078 | 36902 ft | 498 kts | 133° |
| 2026-05-04 00:35 | -3.97100 | 91.97026 | 36899 ft | 498 kts | 133° |
| 2026-05-04 00:35 | -4.01951 | 92.01970 | 36903 ft | 498 kts | 134° |
| 2026-05-04 00:36 | -4.06836 | 92.06822 | 36901 ft | 498 kts | 134° |
| 2026-05-04 00:36 | -4.11757 | 92.11704 | 36902 ft | 498 kts | 134° |
| 2026-05-04 00:37 | -4.16670 | 92.16596 | 36906 ft | 498 kts | 134° |
| 2026-05-04 00:37 | -4.21581 | 92.21489 | 36903 ft | 498 kts | 134° |
| 2026-05-04 00:38 | -4.26501 | 92.26393 | 36905 ft | 499 kts | 134° |
| 2026-05-04 00:38 | -4.31414 | 92.31290 | 36904 ft | 499 kts | 134° |
| 2026-05-04 00:39 | -4.36336 | 92.36198 | 36904 ft | 499 kts | 134° |
| 2026-05-04 00:39 | -4.41257 | 92.41105 | 36907 ft | 499 kts | 134° |
| 2026-05-04 00:40 | -4.46181 | 92.46016 | 36910 ft | 500 kts | 134° |
| 2026-05-04 00:40 | -4.51116 | 92.50940 | 36910 ft | 500 kts | 134° |
| 2026-05-04 00:41 | -4.56040 | 92.55853 | 36910 ft | 500 kts | 134° |
| 2026-05-04 00:41 | -4.60967 | 92.60770 | 36915 ft | 500 kts | 134° |
| 2026-05-04 00:42 | -4.65896 | 92.65690 | 36912 ft | 500 kts | 134° |
| 2026-05-04 00:42 | -4.70823 | 92.70609 | 36909 ft | 500 kts | 134° |
| 2026-05-04 00:43 | -4.75746 | 92.75526 | 36907 ft | 500 kts | 134° |
| 2026-05-04 00:43 | -4.80677 | 92.80452 | 36908 ft | 500 kts | 134° |
| 2026-05-04 00:44 | -4.85572 | 92.85342 | 36911 ft | 500 kts | 134° |
| 2026-05-04 00:44 | -4.90511 | 92.90277 | 36911 ft | 501 kts | 134° |
| 2026-05-04 00:45 | -4.95446 | 92.95210 | 36914 ft | 501 kts | 134° |
| 2026-05-04 00:45 | -5.00392 | 93.00155 | 36913 ft | 502 kts | 134° |
| 2026-05-04 00:46 | -5.05341 | 93.05104 | 36923 ft | 503 kts | 134° |
| 2026-05-04 00:46 | -5.10299 | 93.10063 | 36925 ft | 503 kts | 134° |
| 2026-05-04 00:47 | -5.15263 | 93.15028 | 36922 ft | 504 kts | 134° |
| 2026-05-04 00:47 | -5.20220 | 93.19989 | 36922 ft | 504 kts | 134° |
| 2026-05-04 00:48 | -5.25183 | 93.24956 | 36922 ft | 504 kts | 134° |
| 2026-05-04 00:48 | -5.30147 | 93.29926 | 36917 ft | 504 kts | 134° |
| 2026-05-04 00:49 | -5.35105 | 93.34891 | 36915 ft | 504 kts | 134° |
| 2026-05-04 00:49 | -5.40066 | 93.39860 | 36919 ft | 504 kts | 134° |
| 2026-05-04 00:50 | -5.45002 | 93.44805 | 36916 ft | 504 kts | 134° |
| 2026-05-04 00:50 | -5.49970 | 93.49784 | 36913 ft | 505 kts | 134° |
| 2026-05-04 00:51 | -5.54974 | 93.54800 | 36922 ft | 505 kts | 134° |
| 2026-05-04 00:51 | -5.59912 | 93.59750 | 36924 ft | 505 kts | 134° |
| 2026-05-04 00:52 | -5.64886 | 93.64739 | 36925 ft | 505 kts | 134° |
| 2026-05-04 00:52 | -5.69856 | 93.69724 | 36924 ft | 505 kts | 134° |
| 2026-05-04 00:53 | -5.74825 | 93.74710 | 36927 ft | 505 kts | 134° |
| 2026-05-04 00:53 | -5.79786 | 93.79689 | 36924 ft | 504 kts | 134° |
| 2026-05-04 00:54 | -5.84748 | 93.84671 | 36921 ft | 504 kts | 134° |
| 2026-05-04 00:54 | -5.89708 | 93.89651 | 36920 ft | 504 kts | 134° |
| 2026-05-04 00:55 | -5.94659 | 93.94625 | 36918 ft | 503 kts | 134° |
| 2026-05-04 00:55 | -5.99609 | 93.99603 | 36920 ft | 503 kts | 133° |
| 2026-05-04 00:56 | -6.04184 | 94.04906 | 36914 ft | 502 kts | 129° |
| 2026-05-04 00:56 | -6.08703 | 94.10205 | 36921 ft | 502 kts | 130° |
| 2026-05-04 00:57 | -6.13251 | 94.15533 | 36921 ft | 502 kts | 130° |
| 2026-05-04 00:57 | -6.17796 | 94.20863 | 36925 ft | 502 kts | 129° |
| 2026-05-04 00:58 | -6.22347 | 94.26203 | 36924 ft | 503 kts | 130° |
| 2026-05-04 00:58 | -6.26894 | 94.31540 | 36924 ft | 503 kts | 130° |
| 2026-05-04 00:59 | -6.31445 | 94.36885 | 36925 ft | 503 kts | 130° |
| 2026-05-04 00:59 | -6.35996 | 94.42231 | 36925 ft | 503 kts | 130° |
| 2026-05-04 01:00 | -6.40545 | 94.47576 | 36920 ft | 503 kts | 130° |
| 2026-05-04 01:00 | -6.45068 | 94.52890 | 36922 ft | 503 kts | 130° |
| 2026-05-04 01:01 | -6.49617 | 94.58240 | 36926 ft | 504 kts | 130° |
| 2026-05-04 01:01 | -6.54168 | 94.63591 | 36924 ft | 504 kts | 130° |
| 2026-05-04 01:02 | -6.58724 | 94.68951 | 36926 ft | 504 kts | 130° |
| 2026-05-04 01:02 | -6.63282 | 94.74315 | 36929 ft | 504 kts | 130° |
| 2026-05-04 01:03 | -6.67838 | 94.79678 | 36921 ft | 504 kts | 130° |
| 2026-05-04 01:03 | -6.72395 | 94.85044 | 36923 ft | 504 kts | 130° |
| 2026-05-04 01:04 | -6.76183 | 94.89505 | 36925 ft | 504 kts | 130° |
| 2026-05-04 01:04 | -6.80739 | 94.94873 | 36925 ft | 504 kts | 130° |
| 2026-05-04 01:05 | -6.85296 | 95.00244 | 36928 ft | 504 kts | 129° |
| 2026-05-04 01:05 | -6.89852 | 95.05615 | 36926 ft | 505 kts | 129° |
| 2026-05-04 01:06 | -6.94412 | 95.10993 | 36924 ft | 505 kts | 129° |
| 2026-05-04 01:06 | -6.98946 | 95.16342 | 36925 ft | 505 kts | 130° |
| 2026-05-04 01:07 | -7.03533 | 95.21755 | 36930 ft | 505 kts | 129° |
| 2026-05-04 01:07 | -7.08094 | 95.27138 | 36930 ft | 505 kts | 130° |
| 2026-05-04 01:08 | -7.12624 | 95.32488 | 36925 ft | 505 kts | 129° |
| 2026-05-04 01:08 | -7.17182 | 95.37872 | 36927 ft | 505 kts | 129° |
| 2026-05-04 01:09 | -7.21740 | 95.43259 | 36928 ft | 505 kts | 129° |
| 2026-05-04 01:09 | -7.26297 | 95.48645 | 36928 ft | 505 kts | 129° |
| 2026-05-04 01:10 | -7.30854 | 95.54033 | 36923 ft | 505 kts | 129° |
| 2026-05-04 01:10 | -7.35415 | 95.59429 | 36922 ft | 505 kts | 129° |
| 2026-05-04 01:11 | -7.39968 | 95.64817 | 36927 ft | 506 kts | 129° |
| 2026-05-04 01:11 | -7.44530 | 95.70217 | 36926 ft | 506 kts | 129° |
| 2026-05-04 01:12 | -7.49092 | 95.75619 | 36922 ft | 506 kts | 129° |
| 2026-05-04 01:12 | -7.53656 | 95.81024 | 36924 ft | 507 kts | 129° |
| 2026-05-04 01:13 | -7.58225 | 95.86439 | 36925 ft | 507 kts | 129° |
| 2026-05-04 01:13 | -7.62765 | 95.91821 | 36930 ft | 507 kts | 129° |
| 2026-05-04 01:14 | -7.67337 | 95.97242 | 36932 ft | 508 kts | 129° |
| 2026-05-04 01:14 | -7.71911 | 96.02669 | 36931 ft | 508 kts | 129° |
| 2026-05-04 01:15 | -7.76490 | 96.08102 | 36929 ft | 508 kts | 129° |
| 2026-05-04 01:15 | -7.81064 | 96.13532 | 36927 ft | 508 kts | 129° |
| 2026-05-04 01:16 | -7.85640 | 96.18967 | 36930 ft | 508 kts | 129° |
| 2026-05-04 01:16 | -7.90223 | 96.24411 | 36931 ft | 509 kts | 129° |
| 2026-05-04 01:17 | -7.94799 | 96.29849 | 36925 ft | 509 kts | 129° |
| 2026-05-04 01:17 | -7.99384 | 96.35300 | 36927 ft | 509 kts | 129° |
| 2026-05-04 01:18 | -8.03968 | 96.40752 | 36930 ft | 509 kts | 129° |
| 2026-05-04 01:18 | -8.08550 | 96.46205 | 36931 ft | 509 kts | 129° |
| 2026-05-04 01:19 | -8.13134 | 96.51660 | 36934 ft | 509 kts | 129° |
| 2026-05-04 01:19 | -8.17691 | 96.57087 | 36934 ft | 510 kts | 129° |
| 2026-05-04 01:20 | -8.22273 | 96.62545 | 36934 ft | 510 kts | 129° |
| 2026-05-04 01:20 | -8.26851 | 96.68001 | 36936 ft | 510 kts | 129° |
| 2026-05-04 01:21 | -8.31437 | 96.73467 | 36934 ft | 510 kts | 129° |
| 2026-05-04 01:21 | -8.36018 | 96.78931 | 36933 ft | 510 kts | 129° |
| 2026-05-04 01:22 | -8.40598 | 96.84395 | 36940 ft | 510 kts | 129° |
| 2026-05-04 01:22 | -8.45191 | 96.89877 | 36941 ft | 510 kts | 129° |
| 2026-05-04 01:23 | -8.49770 | 96.95344 | 36937 ft | 510 kts | 129° |
| 2026-05-04 01:23 | -8.54347 | 97.00812 | 36938 ft | 510 kts | 129° |
| 2026-05-04 01:24 | -8.58896 | 97.06248 | 36939 ft | 510 kts | 129° |
| 2026-05-04 01:24 | -8.63474 | 97.11721 | 36938 ft | 510 kts | 129° |
| 2026-05-04 01:25 | -8.68048 | 97.17192 | 36937 ft | 510 kts | 129° |
| 2026-05-04 01:25 | -8.72624 | 97.22667 | 36936 ft | 510 kts | 129° |
| 2026-05-04 01:26 | -8.77204 | 97.28149 | 36936 ft | 510 kts | 129° |
| 2026-05-04 01:26 | -8.81782 | 97.33631 | 36940 ft | 510 kts | 129° |
| 2026-05-04 01:27 | -8.86357 | 97.39111 | 36942 ft | 510 kts | 129° |
| 2026-05-04 01:27 | -8.90938 | 97.44602 | 36943 ft | 511 kts | 129° |
| 2026-05-04 01:28 | -8.95527 | 97.50104 | 36941 ft | 511 kts | 129° |
| 2026-05-04 01:28 | -9.00107 | 97.55598 | 36940 ft | 511 kts | 129° |
| 2026-05-04 01:29 | -9.04692 | 97.61100 | 36941 ft | 512 kts | 129° |
| 2026-05-04 01:29 | -9.09282 | 97.66611 | 36943 ft | 512 kts | 129° |
| 2026-05-04 01:30 | -9.13870 | 97.72121 | 36942 ft | 512 kts | 128° |
| 2026-05-04 01:30 | -9.18435 | 97.77606 | 36944 ft | 512 kts | 128° |
| 2026-05-04 01:31 | -9.23026 | 97.83126 | 36946 ft | 512 kts | 128° |
| 2026-05-04 01:31 | -9.27615 | 97.88645 | 36947 ft | 512 kts | 128° |
| 2026-05-04 01:32 | -9.32204 | 97.94166 | 36947 ft | 512 kts | 128° |
| 2026-05-04 01:32 | -9.36786 | 97.99682 | 36944 ft | 512 kts | 128° |
| 2026-05-04 01:33 | -9.41366 | 98.05197 | 36948 ft | 512 kts | 128° |
| 2026-05-04 01:33 | -9.45950 | 98.10721 | 36948 ft | 512 kts | 128° |
| 2026-05-04 01:34 | -9.50523 | 98.16232 | 36945 ft | 511 kts | 128° |
| 2026-05-04 01:34 | -9.55103 | 98.21755 | 36948 ft | 511 kts | 128° |
| 2026-05-04 01:35 | -9.59682 | 98.27280 | 36948 ft | 511 kts | 128° |
| 2026-05-04 01:35 | -9.64255 | 98.32800 | 36949 ft | 511 kts | 128° |
| 2026-05-04 01:36 | -9.68827 | 98.38321 | 36950 ft | 511 kts | 129° |
| 2026-05-04 01:36 | -9.73398 | 98.43844 | 36946 ft | 511 kts | 129° |
| 2026-05-04 01:37 | -9.77969 | 98.49369 | 36950 ft | 511 kts | 129° |
| 2026-05-04 01:37 | -9.82536 | 98.54892 | 36951 ft | 511 kts | 128° |
| 2026-05-04 01:38 | -9.87079 | 98.60388 | 36946 ft | 511 kts | 128° |
| 2026-05-04 01:38 | -9.91643 | 98.65913 | 36948 ft | 511 kts | 128° |
| 2026-05-04 01:39 | -9.96211 | 98.71445 | 36949 ft | 511 kts | 128° |
| 2026-05-04 01:39 | -10.00772 | 98.76971 | 36949 ft | 511 kts | 128° |
| 2026-05-04 01:40 | -10.05339 | 98.82507 | 36949 ft | 511 kts | 128° |
| 2026-05-04 01:40 | -10.09904 | 98.88043 | 36951 ft | 511 kts | 128° |
| 2026-05-04 01:41 | -10.14463 | 98.93575 | 36950 ft | 511 kts | 128° |
| 2026-05-04 01:41 | -10.19031 | 98.99120 | 36954 ft | 512 kts | 128° |
| 2026-05-04 01:42 | -10.23594 | 99.04662 | 36949 ft | 512 kts | 128° |
| 2026-05-04 01:42 | -10.28160 | 99.10210 | 36948 ft | 512 kts | 128° |
| 2026-05-04 01:43 | -10.32723 | 99.15758 | 36952 ft | 512 kts | 129° |
| 2026-05-04 01:43 | -10.37290 | 99.21314 | 36950 ft | 512 kts | 129° |
| 2026-05-04 01:44 | -10.41858 | 99.26873 | 36948 ft | 513 kts | 129° |
| 2026-05-04 01:44 | -10.46429 | 99.32438 | 36960 ft | 513 kts | 129° |
| 2026-05-04 01:45 | -10.51004 | 99.38009 | 36959 ft | 513 kts | 129° |
| 2026-05-04 01:45 | -10.57858 | 99.46361 | 36958 ft | 513 kts | 129° |
| 2026-05-04 01:46 | -10.62428 | 99.51933 | 36958 ft | 513 kts | 129° |
| 2026-05-04 01:46 | -10.67019 | 99.57488 | 36954 ft | 513 kts | 130° |
| 2026-05-04 01:47 | -10.71741 | 99.62867 | 36956 ft | 513 kts | 131° |
| 2026-05-04 01:47 | -10.76497 | 99.68276 | 36955 ft | 513 kts | 130° |
| 2026-05-04 01:48 | -10.81241 | 99.73712 | 36954 ft | 513 kts | 130° |
| 2026-05-04 01:48 | -10.85976 | 99.79150 | 36958 ft | 513 kts | 130° |
| 2026-05-04 01:49 | -10.90709 | 99.84589 | 36963 ft | 514 kts | 130° |
| 2026-05-04 01:49 | -10.95450 | 99.90040 | 36958 ft | 514 kts | 130° |
| 2026-05-04 01:50 | -11.00190 | 99.95492 | 36959 ft | 514 kts | 130° |
| 2026-05-04 01:50 | -11.04927 | 100.00944 | 36957 ft | 514 kts | 130° |
| 2026-05-04 01:51 | -11.08864 | 100.05477 | 36964 ft | 514 kts | 130° |
| 2026-05-04 01:51 | -11.13609 | 100.10943 | 36961 ft | 515 kts | 130° |
| 2026-05-04 01:52 | -11.18350 | 100.16406 | 36962 ft | 515 kts | 130° |
| 2026-05-04 01:52 | -11.23093 | 100.21876 | 36964 ft | 515 kts | 131° |
| 2026-05-04 01:53 | -11.27841 | 100.27354 | 36959 ft | 516 kts | 130° |
| 2026-05-04 01:53 | -11.32588 | 100.32835 | 36962 ft | 516 kts | 131° |
| 2026-05-04 01:54 | -11.37335 | 100.38318 | 36965 ft | 516 kts | 131° |
| 2026-05-04 01:54 | -11.42093 | 100.43816 | 36962 ft | 517 kts | 131° |
| 2026-05-04 01:55 | -11.46834 | 100.49316 | 36959 ft | 517 kts | 129° |
| 2026-05-04 01:55 | -11.51134 | 100.55127 | 36963 ft | 517 kts | 126° |
| 2026-05-04 01:56 | -11.55449 | 100.60999 | 36964 ft | 517 kts | 126° |
| 2026-05-04 01:56 | -11.59768 | 100.66875 | 36968 ft | 517 kts | 126° |
| 2026-05-04 01:57 | -11.64082 | 100.72750 | 36968 ft | 518 kts | 126° |
| 2026-05-04 01:57 | -11.68396 | 100.78631 | 36971 ft | 518 kts | 126° |
| 2026-05-04 01:58 | -11.72715 | 100.84525 | 36971 ft | 518 kts | 126° |
| 2026-05-04 01:58 | -11.77022 | 100.90405 | 36971 ft | 518 kts | 126° |
| 2026-05-04 01:59 | -11.81333 | 100.96294 | 36970 ft | 518 kts | 126° |
| 2026-05-04 01:59 | -11.85642 | 101.02183 | 36970 ft | 518 kts | 126° |
| 2026-05-04 02:00 | -11.89950 | 101.08076 | 36972 ft | 518 kts | 126° |
| 2026-05-04 02:00 | -11.94254 | 101.13966 | 36971 ft | 518 kts | 126° |
| 2026-05-04 02:01 | -11.98558 | 101.19860 | 36971 ft | 518 kts | 126° |
| 2026-05-04 02:01 | -12.02862 | 101.25756 | 36976 ft | 518 kts | 126° |
| 2026-05-04 02:02 | -12.07137 | 101.31618 | 36971 ft | 518 kts | 126° |
| 2026-05-04 02:02 | -12.11444 | 101.37527 | 36974 ft | 518 kts | 126° |
| 2026-05-04 02:03 | -12.15749 | 101.43436 | 36981 ft | 518 kts | 126° |
| 2026-05-04 02:03 | -12.20053 | 101.49347 | 36976 ft | 518 kts | 126° |
| 2026-05-04 02:04 | -12.24357 | 101.55262 | 36975 ft | 518 kts | 126° |
| 2026-05-04 02:04 | -12.28661 | 101.61181 | 36974 ft | 519 kts | 126° |
| 2026-05-04 02:05 | -12.32965 | 101.67103 | 36976 ft | 519 kts | 126° |
| 2026-05-04 02:05 | -12.37244 | 101.72995 | 36979 ft | 519 kts | 126° |
| 2026-05-04 02:06 | -12.41550 | 101.78928 | 36985 ft | 519 kts | 126° |
| 2026-05-04 02:06 | -12.45860 | 101.84870 | 36984 ft | 519 kts | 126° |
| 2026-05-04 02:07 | -12.50158 | 101.90799 | 36983 ft | 519 kts | 126° |
| 2026-05-04 02:07 | -12.54457 | 101.96733 | 36981 ft | 519 kts | 126° |
| 2026-05-04 02:08 | -12.58754 | 102.02668 | 36979 ft | 519 kts | 126° |
| 2026-05-04 02:08 | -12.63050 | 102.08607 | 36980 ft | 519 kts | 126° |
| 2026-05-04 02:09 | -12.67342 | 102.14543 | 36978 ft | 519 kts | 126° |
| 2026-05-04 02:09 | -12.71635 | 102.20483 | 36981 ft | 519 kts | 126° |
| 2026-05-04 02:10 | -12.75926 | 102.26426 | 36984 ft | 519 kts | 126° |
| 2026-05-04 02:10 | -12.80217 | 102.32372 | 36981 ft | 519 kts | 126° |
| 2026-05-04 02:11 | -12.84476 | 102.38278 | 36983 ft | 519 kts | 126° |
| 2026-05-04 02:11 | -12.88767 | 102.44231 | 36984 ft | 519 kts | 126° |
| 2026-05-04 02:12 | -12.93057 | 102.50188 | 36985 ft | 519 kts | 126° |
| 2026-05-04 02:12 | -12.97344 | 102.56144 | 36987 ft | 519 kts | 126° |
| 2026-05-04 02:13 | -13.01630 | 102.62104 | 36984 ft | 519 kts | 126° |
| 2026-05-04 02:13 | -13.05914 | 102.68064 | 36987 ft | 519 kts | 126° |
| 2026-05-04 02:14 | -13.10201 | 102.74031 | 36986 ft | 519 kts | 126° |
| 2026-05-04 02:14 | -13.14483 | 102.79996 | 36992 ft | 519 kts | 126° |
| 2026-05-04 02:15 | -13.18769 | 102.85972 | 36991 ft | 519 kts | 126° |
| 2026-05-04 02:15 | -13.23051 | 102.91944 | 36993 ft | 520 kts | 126° |
| 2026-05-04 02:16 | -13.27340 | 102.97931 | 36992 ft | 520 kts | 126° |
| 2026-05-04 02:16 | -13.31618 | 103.03907 | 36993 ft | 520 kts | 126° |
| 2026-05-04 02:17 | -13.35900 | 103.09892 | 36994 ft | 520 kts | 126° |
| 2026-05-04 02:17 | -13.40181 | 103.15880 | 36989 ft | 520 kts | 126° |
| 2026-05-04 02:18 | -13.44436 | 103.21836 | 36992 ft | 520 kts | 126° |
| 2026-05-04 02:18 | -13.48742 | 103.27868 | 36991 ft | 520 kts | 126° |
| 2026-05-04 02:19 | -13.53016 | 103.33858 | 36992 ft | 520 kts | 126° |
| 2026-05-04 02:19 | -13.57295 | 103.39859 | 36996 ft | 520 kts | 126° |
| 2026-05-04 02:20 | -13.61541 | 103.45820 | 37000 ft | 520 kts | 127° |
| 2026-05-04 02:20 | -13.65839 | 103.51856 | 36999 ft | 520 kts | 127° |
| 2026-05-04 02:21 | -13.70080 | 103.57817 | 36995 ft | 520 kts | 127° |
| 2026-05-04 02:21 | -13.74344 | 103.63814 | 36993 ft | 520 kts | 127° |
| 2026-05-04 02:22 | -13.78608 | 103.69815 | 36992 ft | 520 kts | 127° |
| 2026-05-04 02:22 | -13.82874 | 103.75825 | 36998 ft | 520 kts | 127° |
| 2026-05-04 02:23 | -13.87132 | 103.81826 | 36999 ft | 520 kts | 127° |
| 2026-05-04 02:23 | -13.91393 | 103.87835 | 37002 ft | 520 kts | 127° |
| 2026-05-04 02:24 | -13.95652 | 103.93845 | 36999 ft | 520 kts | 127° |
| 2026-05-04 02:24 | -13.99903 | 103.99864 | 36999 ft | 519 kts | 125° |
| 2026-05-04 02:25 | -14.03787 | 104.06140 | 36996 ft | 520 kts | 123° |
| 2026-05-04 02:25 | -14.07677 | 104.12412 | 36996 ft | 520 kts | 123° |
| 2026-05-04 02:26 | -14.11572 | 104.18698 | 36996 ft | 520 kts | 123° |
| 2026-05-04 02:26 | -14.15463 | 104.24989 | 36999 ft | 520 kts | 123° |
| 2026-05-04 02:27 | -14.19352 | 104.31285 | 37003 ft | 521 kts | 123° |
| 2026-05-04 02:27 | -14.23236 | 104.37580 | 37005 ft | 521 kts | 123° |
| 2026-05-04 02:28 | -14.27122 | 104.43883 | 37004 ft | 521 kts | 123° |
| 2026-05-04 02:28 | -14.31004 | 104.50186 | 37004 ft | 521 kts | 123° |
| 2026-05-04 02:29 | -14.34864 | 104.56456 | 37003 ft | 521 kts | 123° |
| 2026-05-04 02:29 | -14.38769 | 104.62806 | 37000 ft | 521 kts | 123° |
| 2026-05-04 02:30 | -14.42628 | 104.69084 | 37001 ft | 521 kts | 123° |
| 2026-05-04 02:30 | -14.46508 | 104.75404 | 37002 ft | 522 kts | 123° |
| 2026-05-04 02:31 | -14.50391 | 104.81732 | 37005 ft | 522 kts | 123° |
| 2026-05-04 02:31 | -14.54278 | 104.88071 | 37004 ft | 522 kts | 123° |
| 2026-05-04 02:32 | -14.58156 | 104.94401 | 37004 ft | 522 kts | 123° |
| 2026-05-04 02:32 | -14.62035 | 105.00737 | 37007 ft | 522 kts | 123° |
| 2026-05-04 02:33 | -14.65918 | 105.07086 | 37008 ft | 522 kts | 123° |
| 2026-05-04 02:33 | -14.69798 | 105.13434 | 37006 ft | 523 kts | 123° |
| 2026-05-04 02:34 | -14.73676 | 105.19785 | 37010 ft | 523 kts | 123° |
| 2026-05-04 02:34 | -14.77549 | 105.26132 | 37009 ft | 523 kts | 123° |
| 2026-05-04 02:35 | -14.81401 | 105.32449 | 37012 ft | 523 kts | 123° |
| 2026-05-04 02:35 | -14.85274 | 105.38806 | 37009 ft | 523 kts | 123° |
| 2026-05-04 02:36 | -14.89153 | 105.45179 | 37008 ft | 523 kts | 123° |
| 2026-05-04 02:36 | -14.93029 | 105.51551 | 37009 ft | 523 kts | 123° |
| 2026-05-04 02:37 | -14.96903 | 105.57926 | 37010 ft | 524 kts | 123° |
| 2026-05-04 02:37 | -15.00780 | 105.64311 | 37012 ft | 524 kts | 123° |
| 2026-05-04 02:38 | -15.04655 | 105.70698 | 37012 ft | 525 kts | 123° |
| 2026-05-04 02:38 | -15.07906 | 105.76060 | 37013 ft | 525 kts | 123° |
| 2026-05-04 02:39 | -15.11766 | 105.82430 | 37013 ft | 526 kts | 123° |
| 2026-05-04 02:39 | -15.15648 | 105.88844 | 37016 ft | 526 kts | 123° |
| 2026-05-04 02:40 | -15.19533 | 105.95267 | 37019 ft | 526 kts | 123° |
| 2026-05-04 02:40 | -15.23414 | 106.01691 | 37020 ft | 526 kts | 123° |
| 2026-05-04 02:41 | -15.27299 | 106.08123 | 37023 ft | 527 kts | 123° |
| 2026-05-04 02:41 | -15.31182 | 106.14560 | 37021 ft | 527 kts | 123° |
| 2026-05-04 02:42 | -15.35066 | 106.21005 | 37019 ft | 527 kts | 123° |
| 2026-05-04 02:42 | -15.38946 | 106.27447 | 37022 ft | 527 kts | 123° |
| 2026-05-04 02:43 | -15.42826 | 106.33895 | 37023 ft | 527 kts | 123° |
| 2026-05-04 02:43 | -15.46679 | 106.40302 | 37021 ft | 527 kts | 123° |
| 2026-05-04 02:44 | -15.50560 | 106.46762 | 37020 ft | 528 kts | 123° |
| 2026-05-04 02:44 | -15.54439 | 106.53226 | 37021 ft | 528 kts | 123° |
| 2026-05-04 02:45 | -15.58316 | 106.59690 | 37020 ft | 528 kts | 123° |
| 2026-05-04 02:45 | -15.62193 | 106.66161 | 37020 ft | 528 kts | 123° |
| 2026-05-04 02:46 | -15.66075 | 106.72646 | 37021 ft | 529 kts | 123° |
| 2026-05-04 02:46 | -15.69953 | 106.79129 | 37023 ft | 529 kts | 123° |
| 2026-05-04 02:47 | -15.73830 | 106.85616 | 37027 ft | 529 kts | 123° |
| 2026-05-04 02:47 | -15.77712 | 106.92118 | 37027 ft | 530 kts | 123° |
| 2026-05-04 02:48 | -15.81593 | 106.98623 | 37027 ft | 530 kts | 123° |
| 2026-05-04 02:48 | -15.85475 | 107.05136 | 37030 ft | 530 kts | 123° |
| 2026-05-04 02:49 | -15.89335 | 107.11619 | 37029 ft | 531 kts | 123° |
| 2026-05-04 02:49 | -15.93219 | 107.18146 | 37031 ft | 531 kts | 123° |
| 2026-05-04 02:50 | -15.97102 | 107.24678 | 37027 ft | 531 kts | 123° |
| 2026-05-04 02:50 | -16.00987 | 107.31219 | 37029 ft | 532 kts | 123° |
| 2026-05-04 02:51 | -16.04871 | 107.37765 | 37032 ft | 532 kts | 123° |
| 2026-05-04 02:51 | -16.08751 | 107.44309 | 37030 ft | 532 kts | 123° |
| 2026-05-04 02:52 | -16.12631 | 107.50861 | 37034 ft | 532 kts | 123° |
| 2026-05-04 02:52 | -16.16514 | 107.57423 | 37033 ft | 532 kts | 123° |
| 2026-05-04 02:53 | -16.20396 | 107.63988 | 37034 ft | 533 kts | 123° |
| 2026-05-04 02:53 | -16.24276 | 107.70557 | 37032 ft | 533 kts | 123° |
| 2026-05-04 02:54 | -16.28157 | 107.77132 | 37032 ft | 533 kts | 123° |
| 2026-05-04 02:54 | -16.32031 | 107.83703 | 37034 ft | 533 kts | 123° |
| 2026-05-04 02:55 | -16.37849 | 107.93582 | 37034 ft | 533 kts | 123° |
| 2026-05-04 02:56 | -16.41729 | 108.00177 | 37031 ft | 534 kts | 123° |
| 2026-05-04 02:56 | -16.45600 | 108.06763 | 37033 ft | 534 kts | 123° |
| 2026-05-04 02:57 | -16.49479 | 108.13370 | 37030 ft | 534 kts | 123° |
| 2026-05-04 02:57 | -16.53356 | 108.19979 | 37037 ft | 534 kts | 123° |
| 2026-05-04 02:58 | -16.57227 | 108.26585 | 37034 ft | 534 kts | 123° |
| 2026-05-04 02:58 | -16.61099 | 108.33198 | 37033 ft | 535 kts | 123° |
| 2026-05-04 02:59 | -16.64956 | 108.39791 | 37033 ft | 535 kts | 123° |
| 2026-05-04 02:59 | -16.68828 | 108.46417 | 37036 ft | 535 kts | 123° |
| 2026-05-04 03:00 | -16.72704 | 108.53056 | 37037 ft | 535 kts | 123° |
| 2026-05-04 03:00 | -16.76577 | 108.59695 | 37036 ft | 536 kts | 123° |
| 2026-05-04 03:01 | -16.80450 | 108.66340 | 37038 ft | 536 kts | 123° |
| 2026-05-04 03:01 | -16.84320 | 108.72988 | 37036 ft | 536 kts | 123° |
| 2026-05-04 03:02 | -16.88169 | 108.79606 | 37042 ft | 536 kts | 124° |
| 2026-05-04 03:02 | -16.92042 | 108.86267 | 37041 ft | 537 kts | 124° |
| 2026-05-04 03:03 | -16.95914 | 108.92933 | 37041 ft | 537 kts | 124° |
| 2026-05-04 03:03 | -16.99812 | 108.99664 | 37043 ft | 538 kts | 122° |
| 2026-05-04 03:04 | -17.03291 | 109.06529 | 37040 ft | 539 kts | 120° |
| 2026-05-04 03:04 | -17.06816 | 109.13444 | 37040 ft | 539 kts | 120° |
| 2026-05-04 03:05 | -17.10338 | 109.20361 | 37043 ft | 540 kts | 120° |
| 2026-05-04 03:05 | -17.13857 | 109.27295 | 37047 ft | 540 kts | 120° |
| 2026-05-04 03:06 | -17.17378 | 109.34242 | 37050 ft | 540 kts | 120° |
| 2026-05-04 03:06 | -17.20894 | 109.41187 | 37053 ft | 540 kts | 120° |
| 2026-05-04 03:07 | -17.24408 | 109.48138 | 37048 ft | 541 kts | 120° |
| 2026-05-04 03:07 | -17.27921 | 109.55097 | 37056 ft | 540 kts | 120° |
| 2026-05-04 03:08 | -17.31429 | 109.62054 | 37049 ft | 540 kts | 121° |
| 2026-05-04 03:08 | -17.34933 | 109.69010 | 37037 ft | 541 kts | 121° |
| 2026-05-04 03:09 | -17.38443 | 109.75985 | 37037 ft | 541 kts | 121° |
| 2026-05-04 03:09 | -17.41925 | 109.82914 | 37045 ft | 541 kts | 121° |
| 2026-05-04 03:10 | -17.45451 | 109.89935 | 37046 ft | 541 kts | 121° |
| 2026-05-04 03:10 | -17.48951 | 109.96914 | 37046 ft | 542 kts | 121° |
| 2026-05-04 03:11 | -17.52455 | 110.03907 | 37044 ft | 542 kts | 121° |
| 2026-05-04 03:11 | -17.55934 | 110.10859 | 37051 ft | 543 kts | 121° |
| 2026-05-04 03:12 | -17.59437 | 110.17865 | 37050 ft | 543 kts | 121° |
| 2026-05-04 03:12 | -17.62938 | 110.24876 | 37047 ft | 543 kts | 121° |
| 2026-05-04 03:13 | -17.66441 | 110.31900 | 37046 ft | 543 kts | 121° |
| 2026-05-04 03:13 | -17.69942 | 110.38926 | 37049 ft | 543 kts | 121° |
| 2026-05-04 03:14 | -17.73439 | 110.45952 | 37049 ft | 543 kts | 121° |
| 2026-05-04 03:14 | -17.76938 | 110.52988 | 37050 ft | 543 kts | 121° |
| 2026-05-04 03:15 | -17.80431 | 110.60022 | 37048 ft | 543 kts | 121° |
| 2026-05-04 03:15 | -17.83924 | 110.67064 | 37049 ft | 543 kts | 121° |
| 2026-05-04 03:16 | -17.87412 | 110.74102 | 37046 ft | 543 kts | 121° |
| 2026-05-04 03:16 | -17.90897 | 110.81143 | 37050 ft | 543 kts | 121° |
| 2026-05-04 03:17 | -17.94380 | 110.88188 | 37046 ft | 543 kts | 121° |
| 2026-05-04 03:17 | -17.97862 | 110.95238 | 37050 ft | 543 kts | 121° |
| 2026-05-04 03:18 | -18.01335 | 111.02278 | 37049 ft | 543 kts | 121° |
| 2026-05-04 03:18 | -18.04788 | 111.09285 | 37050 ft | 543 kts | 121° |
| 2026-05-04 03:19 | -18.08266 | 111.16351 | 37045 ft | 544 kts | 121° |
| 2026-05-04 03:19 | -18.11733 | 111.23405 | 37051 ft | 544 kts | 121° |
| 2026-05-04 03:20 | -18.15206 | 111.30475 | 37050 ft | 544 kts | 121° |
| 2026-05-04 03:20 | -18.18681 | 111.37560 | 37053 ft | 544 kts | 121° |
| 2026-05-04 03:21 | -18.22146 | 111.44631 | 37053 ft | 544 kts | 121° |
| 2026-05-04 03:21 | -18.25615 | 111.51720 | 37055 ft | 545 kts | 121° |
| 2026-05-04 03:22 | -18.29083 | 111.58814 | 37051 ft | 545 kts | 121° |
| 2026-05-04 03:22 | -18.32544 | 111.65903 | 37054 ft | 545 kts | 121° |
| 2026-05-04 03:23 | -18.35985 | 111.72958 | 37055 ft | 545 kts | 121° |
| 2026-05-04 03:23 | -18.39444 | 111.80060 | 37057 ft | 545 kts | 121° |
| 2026-05-04 03:24 | -18.42898 | 111.87157 | 37057 ft | 545 kts | 121° |
| 2026-05-04 03:24 | -18.46349 | 111.94258 | 37054 ft | 545 kts | 122° |
| 2026-05-04 03:25 | -18.49802 | 112.01371 | 37050 ft | 545 kts | 122° |
| 2026-05-04 03:25 | -18.53244 | 112.08470 | 37049 ft | 545 kts | 122° |
| 2026-05-04 03:26 | -18.56132 | 112.14432 | 37052 ft | 545 kts | 122° |
| 2026-05-04 03:26 | -18.59554 | 112.21505 | 37059 ft | 545 kts | 122° |
| 2026-05-04 03:27 | -18.62991 | 112.28617 | 37045 ft | 545 kts | 122° |
| 2026-05-04 03:27 | -18.66428 | 112.35738 | 37059 ft | 545 kts | 122° |
| 2026-05-04 03:28 | -18.69866 | 112.42870 | 37054 ft | 545 kts | 122° |
| 2026-05-04 03:28 | -18.73303 | 112.50006 | 37044 ft | 546 kts | 122° |
| 2026-05-04 03:29 | -18.76737 | 112.57146 | 37040 ft | 546 kts | 122° |
| 2026-05-04 03:29 | -18.80167 | 112.64286 | 37043 ft | 546 kts | 122° |
| 2026-05-04 03:30 | -18.83595 | 112.71431 | 37050 ft | 546 kts | 122° |
| 2026-05-04 03:30 | -18.87026 | 112.78590 | 37074 ft | 546 kts | 122° |
| 2026-05-04 03:31 | -18.90451 | 112.85745 | 37055 ft | 546 kts | 122° |
| 2026-05-04 03:31 | -18.93870 | 112.92897 | 37055 ft | 546 kts | 122° |
| 2026-05-04 03:32 | -18.97293 | 113.00065 | 37051 ft | 546 kts | 122° |
| 2026-05-04 03:32 | -19.00704 | 113.07217 | 37050 ft | 545 kts | 122° |
| 2026-05-04 03:33 | -19.04118 | 113.14385 | 37053 ft | 545 kts | 122° |
| 2026-05-04 03:33 | -19.07508 | 113.21509 | 37056 ft | 545 kts | 122° |
| 2026-05-04 03:34 | -19.10915 | 113.28680 | 37058 ft | 546 kts | 122° |
| 2026-05-04 03:34 | -19.14316 | 113.35846 | 37054 ft | 546 kts | 122° |
| 2026-05-04 03:35 | -19.17723 | 113.43032 | 37058 ft | 546 kts | 122° |
| 2026-05-04 03:35 | -19.21126 | 113.50221 | 37056 ft | 546 kts | 122° |
| 2026-05-04 03:36 | -19.24527 | 113.57413 | 37057 ft | 546 kts | 122° |
| 2026-05-04 03:36 | -19.27926 | 113.64611 | 37058 ft | 547 kts | 122° |
| 2026-05-04 03:37 | -19.31328 | 113.71823 | 37058 ft | 547 kts | 122° |
| 2026-05-04 03:37 | -19.34702 | 113.78986 | 37061 ft | 547 kts | 122° |
| 2026-05-04 03:38 | -19.38099 | 113.86205 | 37060 ft | 548 kts | 122° |
| 2026-05-04 03:38 | -19.41495 | 113.93431 | 37067 ft | 548 kts | 122° |
| 2026-05-04 03:39 | -19.44894 | 114.00675 | 37063 ft | 549 kts | 122° |
| 2026-05-04 03:39 | -19.48288 | 114.07915 | 37066 ft | 549 kts | 122° |
| 2026-05-04 03:40 | -19.51686 | 114.15174 | 37068 ft | 549 kts | 122° |
| 2026-05-04 03:40 | -19.55076 | 114.22425 | 37067 ft | 549 kts | 122° |
| 2026-05-04 03:41 | -19.58468 | 114.29691 | 37066 ft | 550 kts | 122° |
| 2026-05-04 03:41 | -19.61862 | 114.36966 | 37069 ft | 550 kts | 122° |
| 2026-05-04 03:42 | -19.65244 | 114.44230 | 37065 ft | 550 kts | 122° |
| 2026-05-04 03:42 | -19.68628 | 114.51504 | 37070 ft | 549 kts | 122° |
| 2026-05-04 03:43 | -19.71985 | 114.58731 | 37068 ft | 549 kts | 122° |
| 2026-05-04 03:43 | -19.75360 | 114.66006 | 37069 ft | 549 kts | 122° |
| 2026-05-04 03:44 | -19.78737 | 114.73293 | 37072 ft | 549 kts | 122° |
| 2026-05-04 03:44 | -19.82104 | 114.80569 | 37071 ft | 549 kts | 122° |
| 2026-05-04 03:45 | -19.85471 | 114.87855 | 37075 ft | 549 kts | 122° |
| 2026-05-04 03:45 | -19.88836 | 114.95146 | 37074 ft | 549 kts | 122° |
| 2026-05-04 03:46 | -19.92194 | 115.02432 | 37073 ft | 549 kts | 122° |
| 2026-05-04 03:46 | -19.95552 | 115.09725 | 37078 ft | 549 kts | 122° |
| 2026-05-04 03:47 | -19.98906 | 115.17021 | 37079 ft | 549 kts | 122° |
| 2026-05-04 03:47 | -20.02254 | 115.24314 | 37083 ft | 549 kts | 122° |
| 2026-05-04 03:48 | -20.05604 | 115.31619 | 37081 ft | 549 kts | 122° |
| 2026-05-04 03:48 | -20.08947 | 115.38919 | 37079 ft | 549 kts | 122° |
| 2026-05-04 03:49 | -20.12287 | 115.46223 | 37085 ft | 549 kts | 122° |
| 2026-05-04 03:49 | -20.15623 | 115.53527 | 37085 ft | 549 kts | 122° |
| 2026-05-04 03:50 | -20.18957 | 115.60839 | 37086 ft | 549 kts | 122° |
| 2026-05-04 03:50 | -20.22287 | 115.68149 | 37084 ft | 548 kts | 122° |
| 2026-05-04 03:51 | -20.25590 | 115.75411 | 37087 ft | 548 kts | 122° |
| 2026-05-04 03:51 | -20.28912 | 115.82723 | 37083 ft | 548 kts | 122° |
| 2026-05-04 03:52 | -20.32234 | 115.90044 | 37090 ft | 549 kts | 122° |
| 2026-05-04 03:52 | -20.35550 | 115.97364 | 37090 ft | 549 kts | 122° |
| 2026-05-04 03:53 | -20.38866 | 116.04693 | 37088 ft | 549 kts | 122° |
| 2026-05-04 03:53 | -20.42180 | 116.12028 | 37089 ft | 549 kts | 123° |
| 2026-05-04 03:54 | -20.45490 | 116.19364 | 37094 ft | 549 kts | 123° |
| 2026-05-04 03:54 | -20.48802 | 116.26712 | 37095 ft | 550 kts | 123° |
| 2026-05-04 03:55 | -20.52113 | 116.34072 | 37090 ft | 550 kts | 123° |
| 2026-05-04 03:55 | -20.55422 | 116.41435 | 37076 ft | 550 kts | 123° |
| 2026-05-04 03:56 | -20.58728 | 116.48797 | 37098 ft | 550 kts | 123° |
| 2026-05-04 03:56 | -20.62039 | 116.56177 | 37107 ft | 550 kts | 123° |
| 2026-05-04 03:57 | -20.65342 | 116.63550 | 37102 ft | 551 kts | 123° |
| 2026-05-04 03:57 | -20.68623 | 116.70882 | 37088 ft | 551 kts | 123° |
| 2026-05-04 03:58 | -20.73635 | 116.81905 | 37094 ft | 548 kts | 125° |
| 2026-05-04 03:58 | -20.77204 | 116.89097 | 37096 ft | 548 kts | 126° |
| 2026-05-04 03:59 | -20.80765 | 116.96301 | 37092 ft | 548 kts | 125° |
| 2026-05-04 03:59 | -20.84302 | 117.03522 | 37100 ft | 548 kts | 125° |
| 2026-05-04 04:00 | -20.87831 | 117.10750 | 37095 ft | 549 kts | 125° |
| 2026-05-04 04:00 | -20.91363 | 117.18000 | 37098 ft | 549 kts | 125° |
| 2026-05-04 04:01 | -20.94890 | 117.25247 | 37098 ft | 549 kts | 125° |
| 2026-05-04 04:01 | -20.98412 | 117.32496 | 37098 ft | 549 kts | 125° |
| 2026-05-04 04:02 | -21.01929 | 117.39743 | 37102 ft | 549 kts | 126° |
| 2026-05-04 04:02 | -21.05447 | 117.47001 | 37100 ft | 549 kts | 126° |
| 2026-05-04 04:03 | -21.08962 | 117.54264 | 37106 ft | 549 kts | 126° |
| 2026-05-04 04:03 | -21.12470 | 117.61519 | 37099 ft | 549 kts | 126° |
| 2026-05-04 04:04 | -21.15954 | 117.68738 | 37103 ft | 549 kts | 126° |
| 2026-05-04 04:04 | -21.19460 | 117.76010 | 37101 ft | 549 kts | 126° |
| 2026-05-04 04:05 | -21.22964 | 117.83289 | 37106 ft | 549 kts | 126° |
| 2026-05-04 04:05 | -21.26461 | 117.90565 | 37121 ft | 549 kts | 126° |
| 2026-05-04 04:06 | -21.29955 | 117.97841 | 37117 ft | 549 kts | 126° |
| 2026-05-04 04:06 | -21.33451 | 118.05135 | 37124 ft | 549 kts | 126° |
| 2026-05-04 04:07 | -21.36940 | 118.12421 | 37106 ft | 549 kts | 126° |
| 2026-05-04 04:07 | -21.40427 | 118.19714 | 37113 ft | 549 kts | 126° |
| 2026-05-04 04:08 | -21.43895 | 118.26977 | 37118 ft | 549 kts | 126° |
| 2026-05-04 04:08 | -21.47377 | 118.34282 | 37117 ft | 549 kts | 126° |
| 2026-05-04 04:09 | -21.50857 | 118.41591 | 37119 ft | 550 kts | 126° |
| 2026-05-04 04:09 | -21.54336 | 118.48908 | 37123 ft | 550 kts | 126° |
| 2026-05-04 04:10 | -21.57813 | 118.56230 | 37120 ft | 550 kts | 126° |
| 2026-05-04 04:10 | -21.61287 | 118.63558 | 37125 ft | 550 kts | 125° |
| 2026-05-04 04:11 | -21.64763 | 118.70899 | 37130 ft | 551 kts | 126° |
| 2026-05-04 04:11 | -21.67648 | 118.76999 | 37126 ft | 551 kts | 126° |
| 2026-05-04 04:12 | -21.71120 | 118.84352 | 37128 ft | 551 kts | 125° |
| 2026-05-04 04:12 | -21.74589 | 118.91707 | 37135 ft | 552 kts | 125° |
| 2026-05-04 04:13 | -21.78065 | 118.99088 | 37135 ft | 552 kts | 125° |
| 2026-05-04 04:13 | -21.81534 | 119.06468 | 37137 ft | 553 kts | 125° |
| 2026-05-04 04:14 | -21.85005 | 119.13859 | 37139 ft | 553 kts | 125° |
| 2026-05-04 04:14 | -21.88476 | 119.21262 | 37139 ft | 553 kts | 125° |
| 2026-05-04 04:15 | -21.91917 | 119.28610 | 37140 ft | 553 kts | 125° |
| 2026-05-04 04:15 | -21.95382 | 119.36021 | 37143 ft | 553 kts | 125° |
| 2026-05-04 04:16 | -21.98844 | 119.43436 | 37145 ft | 554 kts | 125° |
| 2026-05-04 04:16 | -22.02303 | 119.50856 | 37144 ft | 554 kts | 125° |
| 2026-05-04 04:17 | -22.05760 | 119.58282 | 37145 ft | 554 kts | 125° |
| 2026-05-04 04:17 | -22.09215 | 119.65715 | 37147 ft | 554 kts | 125° |
| 2026-05-04 04:18 | -22.12667 | 119.73153 | 37147 ft | 555 kts | 125° |
| 2026-05-04 04:18 | -22.16120 | 119.80603 | 37153 ft | 555 kts | 125° |
| 2026-05-04 04:19 | -22.19549 | 119.88012 | 37154 ft | 555 kts | 125° |
| 2026-05-04 04:19 | -22.23019 | 119.95523 | 37155 ft | 556 kts | 125° |
| 2026-05-04 04:20 | -22.26442 | 120.02940 | 37161 ft | 556 kts | 125° |
| 2026-05-04 04:20 | -22.29887 | 120.10416 | 37147 ft | 556 kts | 125° |
| 2026-05-04 04:21 | -22.33329 | 120.17899 | 37152 ft | 556 kts | 125° |
| 2026-05-04 04:21 | -22.36773 | 120.25396 | 37156 ft | 557 kts | 125° |
| 2026-05-04 04:22 | -22.40218 | 120.32906 | 37166 ft | 558 kts | 124° |
| 2026-05-04 04:22 | -22.43659 | 120.40420 | 37167 ft | 558 kts | 124° |
| 2026-05-04 04:23 | -22.47093 | 120.47929 | 37164 ft | 558 kts | 124° |
| 2026-05-04 04:23 | -22.50526 | 120.55447 | 37171 ft | 559 kts | 124° |
| 2026-05-04 04:24 | -22.53959 | 120.62975 | 37165 ft | 559 kts | 124° |
| 2026-05-04 04:24 | -22.57420 | 120.70580 | 37173 ft | 559 kts | 124° |
| 2026-05-04 04:25 | -22.60831 | 120.78082 | 37169 ft | 560 kts | 124° |
| 2026-05-04 04:25 | -22.64266 | 120.85653 | 37170 ft | 560 kts | 124° |
| 2026-05-04 04:26 | -22.67699 | 120.93228 | 37172 ft | 561 kts | 124° |
| 2026-05-04 04:26 | -22.71114 | 121.00793 | 37187 ft | 558 kts | 126° |
| 2026-05-04 04:27 | -22.74495 | 121.08282 | 37177 ft | 549 kts | 126° |
| 2026-05-04 04:27 | -22.77860 | 121.15726 | 37164 ft | 550 kts | 126° |
| 2026-05-04 04:28 | -22.81229 | 121.23195 | 37346 ft | 554 kts | 126° |
| 2026-05-04 04:28 | -22.82914 | 121.26940 | 37815 ft | 553 kts | 126° |
| 2026-05-04 04:28 | -22.84599 | 121.30691 | 38302 ft | 552 kts | 126° |
| 2026-05-04 04:29 | -22.86276 | 121.34427 | 38754 ft | 552 kts | 126° |
| 2026-05-04 04:29 | -22.87959 | 121.38173 | 39082 ft | 553 kts | 126° |
| 2026-05-04 04:29 | -22.91314 | 121.45656 | 39172 ft | 547 kts | 126° |
| 2026-05-04 04:30 | -22.94587 | 121.53145 | 39179 ft | 554 kts | 122° |
| 2026-05-04 04:30 | -22.97613 | 121.60831 | 39181 ft | 553 kts | 123° |
| 2026-05-04 04:31 | -23.00680 | 121.68482 | 39180 ft | 553 kts | 123° |
| 2026-05-04 04:31 | -23.03744 | 121.76157 | 39179 ft | 553 kts | 122° |
| 2026-05-04 04:32 | -23.06794 | 121.83829 | 39171 ft | 552 kts | 122° |
| 2026-05-04 04:32 | -23.09827 | 121.91479 | 39168 ft | 551 kts | 122° |
| 2026-05-04 04:33 | -23.12838 | 121.99086 | 39165 ft | 551 kts | 122° |
| 2026-05-04 04:33 | -23.15853 | 122.06717 | 39159 ft | 550 kts | 122° |
| 2026-05-04 04:34 | -23.18867 | 122.14361 | 39169 ft | 550 kts | 122° |
| 2026-05-04 04:34 | -23.21880 | 122.22013 | 39168 ft | 550 kts | 122° |
| 2026-05-04 04:35 | -23.24884 | 122.29655 | 39165 ft | 549 kts | 122° |
| 2026-05-04 04:35 | -23.27878 | 122.37284 | 39166 ft | 549 kts | 122° |
| 2026-05-04 04:36 | -23.30898 | 122.44994 | 39160 ft | 550 kts | 121° |
| 2026-05-04 04:36 | -23.33886 | 122.52635 | 39178 ft | 550 kts | 121° |
| 2026-05-04 04:37 | -23.39835 | 122.67885 | 39190 ft | 551 kts | 121° |
| 2026-05-04 04:38 | -23.42870 | 122.75686 | 39195 ft | 551 kts | 121° |
| 2026-05-04 04:38 | -23.45838 | 122.83329 | 39187 ft | 551 kts | 121° |
| 2026-05-04 04:39 | -23.48814 | 122.91003 | 39188 ft | 551 kts | 120° |
| 2026-05-04 04:39 | -23.51797 | 122.98710 | 39186 ft | 550 kts | 120° |
| 2026-05-04 04:40 | -23.54761 | 123.06382 | 39183 ft | 550 kts | 120° |
| 2026-05-04 04:40 | -23.57726 | 123.14067 | 39180 ft | 549 kts | 120° |
| 2026-05-04 04:41 | -23.60677 | 123.21730 | 39180 ft | 549 kts | 120° |
| 2026-05-04 04:41 | -23.63633 | 123.29419 | 39176 ft | 548 kts | 120° |
| 2026-05-04 04:42 | -23.66571 | 123.37074 | 39176 ft | 548 kts | 120° |
| 2026-05-04 04:42 | -23.69512 | 123.44753 | 39178 ft | 548 kts | 120° |
| 2026-05-04 04:43 | -23.72451 | 123.52439 | 39180 ft | 548 kts | 120° |
| 2026-05-04 04:43 | -23.75380 | 123.60109 | 39177 ft | 548 kts | 119° |
| 2026-05-04 04:44 | -23.78289 | 123.67744 | 39181 ft | 548 kts | 119° |
| 2026-05-04 04:44 | -23.81214 | 123.75432 | 39180 ft | 548 kts | 119° |
| 2026-05-04 04:45 | -23.84134 | 123.83119 | 39183 ft | 548 kts | 119° |
| 2026-05-04 04:47 | -23.94314 | 124.10032 | 39178 ft | 547 kts | 118° |
| 2026-05-04 04:47 | -23.97213 | 124.17727 | 39182 ft | 547 kts | 118° |
| 2026-05-04 04:48 | -24.00109 | 124.25426 | 39184 ft | 547 kts | 118° |
| 2026-05-04 04:49 | -24.07303 | 124.44615 | 39179 ft | 546 kts | 118° |
| 2026-05-04 04:49 | -24.10177 | 124.52304 | 39181 ft | 546 kts | 118° |
| 2026-05-04 04:50 | -24.13049 | 124.60003 | 39165 ft | 546 kts | 118° |
| 2026-05-04 04:50 | -24.15898 | 124.67651 | 39169 ft | 545 kts | 118° |
| 2026-05-04 04:51 | -24.18758 | 124.75346 | 39175 ft | 545 kts | 117° |
| 2026-05-04 04:51 | -24.21610 | 124.83030 | 39182 ft | 545 kts | 117° |
| 2026-05-04 04:52 | -24.24460 | 124.90724 | 39180 ft | 544 kts | 117° |
| 2026-05-04 04:52 | -24.27303 | 124.98413 | 39178 ft | 544 kts | 117° |
| 2026-05-04 04:53 | -24.30136 | 125.06088 | 39181 ft | 543 kts | 117° |
| 2026-05-04 04:53 | -24.32968 | 125.13776 | 39181 ft | 543 kts | 117° |
| 2026-05-04 04:54 | -24.35791 | 125.21454 | 39183 ft | 543 kts | 117° |
| 2026-05-04 04:54 | -24.38132 | 125.27827 | 39181 ft | 542 kts | 117° |
| 2026-05-04 04:55 | -24.40946 | 125.35506 | 39177 ft | 542 kts | 117° |
| 2026-05-04 04:55 | -24.43752 | 125.43174 | 39179 ft | 541 kts | 117° |
| 2026-05-04 04:56 | -24.46552 | 125.50843 | 39178 ft | 541 kts | 116° |
| 2026-05-04 04:56 | -24.49344 | 125.58501 | 39180 ft | 540 kts | 116° |
| 2026-05-04 04:57 | -24.52134 | 125.66169 | 39177 ft | 540 kts | 116° |
| 2026-05-04 04:57 | -24.54916 | 125.73830 | 39178 ft | 540 kts | 116° |
| 2026-05-04 04:58 | -24.57674 | 125.81436 | 39178 ft | 539 kts | 116° |
| 2026-05-04 04:58 | -24.60442 | 125.89086 | 39177 ft | 539 kts | 116° |
| 2026-05-04 04:59 | -24.63203 | 125.96731 | 39176 ft | 538 kts | 116° |
| 2026-05-04 04:59 | -24.65960 | 126.04376 | 39177 ft | 538 kts | 116° |
| 2026-05-04 05:00 | -24.68710 | 126.12017 | 39176 ft | 537 kts | 116° |
| 2026-05-04 05:01 | -24.72819 | 126.23462 | 39178 ft | 536 kts | 115° |
| 2026-05-04 05:01 | -24.75549 | 126.31084 | 39176 ft | 535 kts | 115° |
| 2026-05-04 05:02 | -24.78274 | 126.38703 | 39174 ft | 535 kts | 115° |
| 2026-05-04 05:02 | -24.80991 | 126.46319 | 39174 ft | 534 kts | 115° |
| 2026-05-04 05:03 | -24.83686 | 126.53883 | 39169 ft | 533 kts | 115° |
| 2026-05-04 05:04 | -24.89087 | 126.69087 | 39172 ft | 532 kts | 115° |
| 2026-05-04 05:04 | -24.91778 | 126.76681 | 39169 ft | 532 kts | 115° |
| 2026-05-04 05:06 | -25.02557 | 127.07004 | 39164 ft | 530 kts | 115° |
| 2026-05-04 05:07 | -25.05353 | 127.14539 | 39171 ft | 530 kts | 115° |
| 2026-05-04 05:07 | -25.08117 | 127.22015 | 39170 ft | 530 kts | 115° |
| 2026-05-04 05:09 | -25.20546 | 127.55929 | 39171 ft | 529 kts | 115° |
| 2026-05-04 05:10 | -25.23293 | 127.63467 | 39169 ft | 529 kts | 115° |
| 2026-05-04 05:10 | -25.26020 | 127.70965 | 39172 ft | 529 kts | 115° |
| 2026-05-04 05:11 | -25.28758 | 127.78505 | 39170 ft | 529 kts | 114° |
| 2026-05-04 05:11 | -25.31512 | 127.86104 | 39171 ft | 529 kts | 114° |
| 2026-05-04 05:12 | -25.34225 | 127.93604 | 39174 ft | 529 kts | 114° |
| 2026-05-04 05:12 | -25.36949 | 128.01149 | 39174 ft | 529 kts | 114° |
| 2026-05-04 05:13 | -25.39672 | 128.08706 | 39174 ft | 529 kts | 114° |
| 2026-05-04 05:13 | -25.42392 | 128.16267 | 39170 ft | 529 kts | 114° |
| 2026-05-04 05:14 | -25.45104 | 128.23821 | 39174 ft | 529 kts | 114° |
| 2026-05-04 05:14 | -25.47819 | 128.31398 | 39178 ft | 529 kts | 114° |
| 2026-05-04 05:15 | -25.50526 | 128.38966 | 39176 ft | 529 kts | 114° |
| 2026-05-04 05:15 | -25.53229 | 128.46536 | 39176 ft | 529 kts | 114° |
| 2026-05-04 05:16 | -25.55932 | 128.54121 | 39176 ft | 529 kts | 114° |
| 2026-05-04 05:16 | -25.58629 | 128.61704 | 39176 ft | 529 kts | 114° |
| 2026-05-04 05:17 | -25.60679 | 128.67479 | 39175 ft | 529 kts | 114° |
| 2026-05-04 05:17 | -25.63369 | 128.75069 | 39174 ft | 529 kts | 114° |
| 2026-05-04 05:18 | -25.66058 | 128.82669 | 39178 ft | 530 kts | 113° |
| 2026-05-04 05:18 | -25.68746 | 128.90280 | 39176 ft | 530 kts | 113° |
| 2026-05-04 05:19 | -25.71429 | 128.97894 | 39178 ft | 530 kts | 113° |
| 2026-05-04 05:19 | -25.74093 | 129.05467 | 39174 ft | 530 kts | 113° |
| 2026-05-04 05:20 | -25.76771 | 129.13096 | 39180 ft | 530 kts | 113° |
| 2026-05-04 05:20 | -25.79444 | 129.20722 | 39180 ft | 531 kts | 113° |
| 2026-05-04 05:21 | -25.82113 | 129.28354 | 39180 ft | 531 kts | 113° |
| 2026-05-04 05:21 | -25.84784 | 129.36005 | 39179 ft | 531 kts | 113° |
| 2026-05-04 05:22 | -25.87450 | 129.43659 | 39178 ft | 531 kts | 113° |
| 2026-05-04 05:22 | -25.90116 | 129.51326 | 39181 ft | 531 kts | 113° |
| 2026-05-04 05:23 | -25.92771 | 129.58979 | 39179 ft | 531 kts | 113° |
| 2026-05-04 05:23 | -25.95409 | 129.66594 | 39180 ft | 531 kts | 113° |
| 2026-05-04 05:24 | -25.98059 | 129.74264 | 39179 ft | 531 kts | 112° |
| 2026-05-04 05:24 | -26.00706 | 129.81937 | 39179 ft | 532 kts | 112° |
| 2026-05-04 05:25 | -26.03351 | 129.89620 | 39178 ft | 532 kts | 112° |
| 2026-05-04 05:25 | -26.05992 | 129.97305 | 39182 ft | 532 kts | 112° |
| 2026-05-04 05:26 | -26.08629 | 130.04994 | 39171 ft | 533 kts | 112° |
| 2026-05-04 05:26 | -26.11267 | 130.12704 | 39171 ft | 533 kts | 112° |
| 2026-05-04 05:28 | -26.21798 | 130.43632 | 39186 ft | 534 kts | 112° |
| 2026-05-04 05:29 | -26.24420 | 130.51371 | 39184 ft | 534 kts | 112° |
| 2026-05-04 05:29 | -26.27040 | 130.59120 | 39183 ft | 535 kts | 112° |
| 2026-05-04 05:31 | -26.37497 | 130.90211 | 39192 ft | 536 kts | 111° |
| 2026-05-04 05:32 | -26.40106 | 130.98006 | 39191 ft | 537 kts | 111° |
| 2026-05-04 05:33 | -26.44001 | 131.09674 | 39183 ft | 537 kts | 111° |
| 2026-05-04 05:33 | -26.46603 | 131.17490 | 39191 ft | 537 kts | 111° |
| 2026-05-04 05:34 | -26.49200 | 131.25309 | 39188 ft | 537 kts | 111° |
| 2026-05-04 05:34 | -26.51796 | 131.33139 | 39188 ft | 538 kts | 111° |
| 2026-05-04 05:35 | -26.54390 | 131.40980 | 39191 ft | 538 kts | 111° |
| 2026-05-04 05:35 | -26.56979 | 131.48821 | 39188 ft | 538 kts | 111° |
| 2026-05-04 05:36 | -26.59562 | 131.56665 | 39183 ft | 539 kts | 111° |
| 2026-05-04 05:36 | -26.62147 | 131.64526 | 39186 ft | 539 kts | 111° |
| 2026-05-04 05:37 | -26.64729 | 131.72398 | 39182 ft | 539 kts | 111° |
| 2026-05-04 05:37 | -26.66002 | 131.76288 | 39182 ft | 526 kts | 111° |
| 2026-05-04 05:37 | -26.67242 | 131.80081 | 39180 ft | 511 kts | 111° |
| 2026-05-04 05:38 | -26.69619 | 131.87361 | 39183 ft | 488 kts | 111° |
| 2026-05-04 05:38 | -26.70781 | 131.90922 | 39181 ft | 489 kts | 111° |
| 2026-05-04 05:38 | -26.73129 | 131.98125 | 39180 ft | 496 kts | 111° |
| 2026-05-04 05:39 | -26.76668 | 132.09017 | 39185 ft | 495 kts | 111° |
| 2026-05-04 05:40 | -26.80173 | 132.19837 | 39181 ft | 495 kts | 111° |
| 2026-05-04 05:40 | -26.82517 | 132.27091 | 39181 ft | 495 kts | 111° |
| 2026-05-04 05:41 | -26.84482 | 132.33181 | 39180 ft | 496 kts | 110° |
| 2026-05-04 05:41 | -26.86805 | 132.40393 | 39176 ft | 496 kts | 110° |
| 2026-05-04 05:42 | -26.89147 | 132.47668 | 39177 ft | 496 kts | 110° |
| 2026-05-04 05:42 | -26.91484 | 132.54944 | 39177 ft | 496 kts | 110° |
| 2026-05-04 05:43 | -26.94022 | 132.62118 | 39173 ft | 495 kts | 118° |
| 2026-05-04 05:45 | -27.06627 | 132.89603 | 39175 ft | 496 kts | 118° |
| 2026-05-04 05:47 | -27.19159 | 133.17227 | 39178 ft | 498 kts | 118° |
| 2026-05-04 05:47 | -27.22291 | 133.24159 | 39177 ft | 498 kts | 118° |
| 2026-05-04 05:48 | -27.25420 | 133.31098 | 39175 ft | 498 kts | 118° |
| 2026-05-04 05:48 | -27.28553 | 133.38055 | 39172 ft | 499 kts | 118° |
| 2026-05-04 05:49 | -27.31667 | 133.44982 | 39176 ft | 496 kts | 118° |
| 2026-05-04 05:49 | -27.34814 | 133.51991 | 39172 ft | 509 kts | 118° |
| 2026-05-04 05:51 | -27.46533 | 133.78208 | 39178 ft | 543 kts | 117° |
| 2026-05-04 05:51 | -27.48232 | 133.82023 | 39181 ft | 545 kts | 117° |
| 2026-05-04 05:52 | -27.51608 | 133.89613 | 39177 ft | 545 kts | 117° |
| 2026-05-04 05:52 | -27.55025 | 133.97309 | 39162 ft | 545 kts | 117° |
| 2026-05-04 05:54 | -27.68580 | 134.27984 | 39166 ft | 548 kts | 117° |
| 2026-05-04 05:55 | -27.71968 | 134.35686 | 39160 ft | 548 kts | 117° |
| 2026-05-04 05:55 | -27.75351 | 134.43392 | 39164 ft | 547 kts | 117° |
| 2026-05-04 05:56 | -27.78729 | 134.51101 | 39163 ft | 547 kts | 117° |
| 2026-05-04 05:56 | -27.82098 | 134.58803 | 39158 ft | 547 kts | 117° |
| 2026-05-04 05:57 | -27.85465 | 134.66515 | 39157 ft | 547 kts | 117° |
| 2026-05-04 05:57 | -27.88826 | 134.74231 | 39155 ft | 547 kts | 117° |
| 2026-05-04 05:58 | -27.92183 | 134.81950 | 39150 ft | 547 kts | 117° |
| 2026-05-04 05:58 | -27.95535 | 134.89673 | 39147 ft | 547 kts | 117° |
| 2026-05-04 05:59 | -27.98887 | 134.97404 | 39151 ft | 547 kts | 117° |
| 2026-05-04 05:59 | -28.02220 | 135.05159 | 39153 ft | 548 kts | 116° |
| 2026-05-04 06:00 | -28.05511 | 135.12938 | 39142 ft | 548 kts | 116° |
| 2026-05-04 06:00 | -28.08809 | 135.20715 | 39147 ft | 548 kts | 116° |
| 2026-05-04 06:01 | -28.12119 | 135.28514 | 39142 ft | 548 kts | 116° |
| 2026-05-04 06:03 | -28.25290 | 135.59742 | 39145 ft | 549 kts | 116° |
| 2026-05-04 06:05 | -28.40020 | 135.94968 | 39145 ft | 550 kts | 116° |
| 2026-05-04 06:06 | -28.43312 | 136.02884 | 39145 ft | 551 kts | 116° |
| 2026-05-04 06:06 | -28.46554 | 136.10695 | 39137 ft | 550 kts | 115° |
| 2026-05-04 06:07 | -28.49818 | 136.18577 | 39139 ft | 551 kts | 115° |
| 2026-05-04 06:07 | -28.53077 | 136.26460 | 39136 ft | 551 kts | 115° |
| 2026-05-04 06:08 | -28.56335 | 136.34358 | 39136 ft | 551 kts | 115° |
| 2026-05-04 06:08 | -28.59587 | 136.42256 | 39137 ft | 551 kts | 115° |
| 2026-05-04 06:09 | -28.62833 | 136.50156 | 39137 ft | 551 kts | 115° |
| 2026-05-04 06:11 | -28.75787 | 136.81845 | 39130 ft | 552 kts | 115° |
| 2026-05-04 06:13 | -28.88680 | 137.13645 | 39131 ft | 553 kts | 115° |
| 2026-05-04 06:14 | -28.99777 | 137.41227 | 39135 ft | 555 kts | 115° |
| 2026-05-04 06:15 | -29.02989 | 137.49248 | 39132 ft | 555 kts | 114° |
| 2026-05-04 06:15 | -29.06175 | 137.57219 | 39133 ft | 555 kts | 114° |
| 2026-05-04 06:16 | -29.09375 | 137.65245 | 39136 ft | 555 kts | 114° |
| 2026-05-04 06:16 | -29.12577 | 137.73291 | 39133 ft | 555 kts | 114° |
| 2026-05-04 06:17 | -29.15772 | 137.81337 | 39132 ft | 556 kts | 114° |
| 2026-05-04 06:17 | -29.18960 | 137.89384 | 39124 ft | 556 kts | 114° |
| 2026-05-04 06:18 | -29.22151 | 137.97454 | 39124 ft | 556 kts | 114° |
| 2026-05-04 06:20 | -29.34888 | 138.29840 | 39124 ft | 558 kts | 114° |
| 2026-05-04 06:21 | -29.42831 | 138.50181 | 39120 ft | 560 kts | 114° |
| 2026-05-04 06:22 | -29.46006 | 138.58343 | 39119 ft | 560 kts | 114° |
| 2026-05-04 06:25 | -29.67578 | 139.14274 | 39119 ft | 561 kts | 113° |
| 2026-05-04 06:26 | -29.70742 | 139.22549 | 39123 ft | 561 kts | 113° |
| 2026-05-04 06:26 | -29.73880 | 139.30776 | 39119 ft | 561 kts | 113° |
| 2026-05-04 06:27 | -29.81669 | 139.51274 | 39108 ft | 561 kts | 113° |
| 2026-05-04 06:28 | -29.84791 | 139.59523 | 39100 ft | 562 kts | 113° |
| 2026-05-04 06:28 | -29.87908 | 139.67778 | 39099 ft | 562 kts | 113° |
| 2026-05-04 06:29 | -29.91022 | 139.76043 | 39098 ft | 562 kts | 112° |
| 2026-05-04 06:29 | -29.94133 | 139.84313 | 39096 ft | 563 kts | 112° |
| 2026-05-04 06:30 | -29.97248 | 139.92607 | 39094 ft | 563 kts | 112° |
| 2026-05-04 06:30 | -30.00339 | 140.00850 | 39092 ft | 564 kts | 112° |
| 2026-05-04 06:31 | -30.03433 | 140.09243 | 39092 ft | 565 kts | 112° |
| 2026-05-04 06:31 | -30.06480 | 140.17539 | 39093 ft | 565 kts | 112° |
| 2026-05-04 06:33 | -30.18763 | 140.51053 | 39104 ft | 567 kts | 112° |
| 2026-05-04 06:34 | -30.21827 | 140.59462 | 39105 ft | 567 kts | 112° |
| 2026-05-04 06:34 | -30.24886 | 140.67878 | 39102 ft | 567 kts | 112° |
| 2026-05-04 06:36 | -30.37041 | 141.01524 | 39101 ft | 568 kts | 112° |
| 2026-05-04 06:37 | -30.40073 | 141.09967 | 39102 ft | 568 kts | 111° |
| 2026-05-04 06:37 | -30.43102 | 141.18420 | 39102 ft | 568 kts | 111° |
| 2026-05-04 06:38 | -30.46127 | 141.26883 | 39100 ft | 569 kts | 111° |
| 2026-05-04 06:40 | -30.58181 | 141.60817 | 39098 ft | 570 kts | 111° |
| 2026-05-04 06:40 | -30.61187 | 141.69333 | 39095 ft | 570 kts | 111° |
| 2026-05-04 06:41 | -30.64192 | 141.77864 | 39097 ft | 571 kts | 111° |
| 2026-05-04 06:41 | -30.67190 | 141.86399 | 39095 ft | 571 kts | 111° |
| 2026-05-04 06:42 | -30.70185 | 141.94945 | 39096 ft | 571 kts | 111° |
| 2026-05-04 06:44 | -30.82134 | 142.29256 | 39094 ft | 572 kts | 111° |
| 2026-05-04 06:44 | -30.85105 | 142.37842 | 39097 ft | 573 kts | 111° |
| 2026-05-04 06:45 | -30.88078 | 142.46455 | 39092 ft | 573 kts | 111° |
| 2026-05-04 06:45 | -30.91025 | 142.55013 | 39096 ft | 573 kts | 111° |
| 2026-05-04 06:46 | -30.93991 | 142.63650 | 39092 ft | 574 kts | 111° |
| 2026-05-04 06:46 | -30.96951 | 142.72290 | 39086 ft | 574 kts | 111° |
| 2026-05-04 06:48 | -31.11842 | 143.05248 | 39085 ft | 576 kts | 120° |
| 2026-05-04 06:50 | -31.27740 | 143.37719 | 39081 ft | 577 kts | 120° |
| 2026-05-04 06:51 | -31.31717 | 143.45887 | 39081 ft | 577 kts | 120° |
| 2026-05-04 06:51 | -31.35679 | 143.54044 | 39080 ft | 577 kts | 120° |
| 2026-05-04 06:52 | -31.39645 | 143.62226 | 39082 ft | 577 kts | 120° |
| 2026-05-04 06:52 | -31.43594 | 143.70390 | 39082 ft | 577 kts | 120° |
| 2026-05-04 06:53 | -31.47540 | 143.78567 | 39078 ft | 577 kts | 120° |
| 2026-05-04 06:53 | -31.51485 | 143.86758 | 39072 ft | 577 kts | 120° |
| 2026-05-04 06:54 | -31.55422 | 143.94949 | 39067 ft | 577 kts | 120° |
| 2026-05-04 06:54 | -31.59353 | 144.03148 | 39069 ft | 577 kts | 120° |
| 2026-05-04 06:55 | -31.63290 | 144.11375 | 39072 ft | 578 kts | 120° |
| 2026-05-04 06:55 | -31.67222 | 144.19610 | 39073 ft | 578 kts | 120° |
| 2026-05-04 06:57 | -31.82883 | 144.52595 | 39078 ft | 579 kts | 119° |
| 2026-05-04 06:58 | -31.86792 | 144.60872 | 39076 ft | 579 kts | 119° |
| 2026-05-04 06:58 | -31.90696 | 144.69159 | 39077 ft | 579 kts | 119° |
| 2026-05-04 06:59 | -31.94602 | 144.77467 | 39076 ft | 579 kts | 119° |
| 2026-05-04 06:59 | -31.98496 | 144.85768 | 39076 ft | 579 kts | 119° |
| 2026-05-04 07:01 | -32.14011 | 145.19031 | 39067 ft | 580 kts | 119° |
| 2026-05-04 07:02 | -32.17882 | 145.27377 | 39071 ft | 580 kts | 119° |
| 2026-05-04 07:02 | -32.21746 | 145.35728 | 39071 ft | 580 kts | 119° |
| 2026-05-04 07:03 | -32.25611 | 145.44098 | 39073 ft | 580 kts | 119° |
| 2026-05-04 07:03 | -32.29468 | 145.52471 | 39069 ft | 580 kts | 118° |
| 2026-05-04 07:04 | -32.33320 | 145.60852 | 39072 ft | 580 kts | 118° |
| 2026-05-04 07:04 | -32.37166 | 145.69241 | 39063 ft | 580 kts | 118° |
| 2026-05-04 07:05 | -32.41008 | 145.77637 | 39066 ft | 580 kts | 118° |
| 2026-05-04 07:05 | -32.44843 | 145.86039 | 39070 ft | 580 kts | 118° |
| 2026-05-04 07:06 | -32.50594 | 145.98674 | 39066 ft | 580 kts | 118° |
| 2026-05-04 07:07 | -32.54425 | 146.07117 | 39063 ft | 580 kts | 118° |
| 2026-05-04 07:09 | -32.69645 | 146.40849 | 39059 ft | 581 kts | 118° |
| 2026-05-04 07:09 | -32.73442 | 146.49316 | 39059 ft | 581 kts | 118° |
| 2026-05-04 07:10 | -32.77239 | 146.57799 | 39058 ft | 581 kts | 118° |
| 2026-05-04 07:12 | -32.91745 | 146.90401 | 39061 ft | 582 kts | 118° |
| 2026-05-04 07:12 | -32.95517 | 146.98926 | 39058 ft | 582 kts | 118° |
| 2026-05-04 07:13 | -32.99279 | 147.07451 | 39060 ft | 582 kts | 118° |
| 2026-05-04 07:13 | -33.03039 | 147.15991 | 39057 ft | 582 kts | 118° |
| 2026-05-04 07:14 | -33.12420 | 147.37387 | 39061 ft | 582 kts | 118° |
| 2026-05-04 07:15 | -33.16137 | 147.45902 | 39062 ft | 581 kts | 118° |
| 2026-05-04 07:15 | -33.19865 | 147.54460 | 39063 ft | 581 kts | 118° |
| 2026-05-04 07:16 | -33.23593 | 147.63042 | 39059 ft | 581 kts | 118° |
| 2026-05-04 07:16 | -33.27307 | 147.71610 | 39060 ft | 580 kts | 118° |
| 2026-05-04 07:17 | -33.31026 | 147.80201 | 39059 ft | 580 kts | 118° |
| 2026-05-04 07:17 | -33.34723 | 147.88732 | 39062 ft | 579 kts | 120° |
| 2026-05-04 07:18 | -33.39360 | 147.96536 | 39066 ft | 574 kts | 135° |
| 2026-05-04 07:18 | -33.44781 | 148.03547 | 39066 ft | 573 kts | 135° |
| 2026-05-04 07:19 | -33.50172 | 148.10564 | 39069 ft | 573 kts | 135° |
| 2026-05-04 07:19 | -33.55578 | 148.17604 | 39070 ft | 573 kts | 135° |
| 2026-05-04 07:20 | -33.60975 | 148.24641 | 39069 ft | 573 kts | 135° |
| 2026-05-04 07:20 | -33.66363 | 148.31680 | 39065 ft | 572 kts | 135° |
| 2026-05-04 07:22 | -33.87836 | 148.59872 | 39062 ft | 571 kts | 135° |
| 2026-05-04 07:23 | -33.93193 | 148.66940 | 39064 ft | 570 kts | 135° |
| 2026-05-04 07:23 | -33.98533 | 148.74001 | 39061 ft | 570 kts | 135° |
| 2026-05-04 07:24 | -34.03868 | 148.81069 | 39064 ft | 570 kts | 135° |
| 2026-05-04 07:24 | -34.09202 | 148.88150 | 39068 ft | 570 kts | 135° |
| 2026-05-04 07:26 | -34.29150 | 149.14759 | 39003 ft | 567 kts | 134° |
| 2026-05-04 07:27 | -34.31784 | 149.18289 | 38633 ft | 563 kts | 134° |
| 2026-05-04 07:27 | -34.34420 | 149.21823 | 37820 ft | 565 kts | 134° |
| 2026-05-04 07:27 | -34.37053 | 149.25355 | 36913 ft | 567 kts | 134° |
| 2026-05-04 07:27 | -34.39697 | 149.28928 | 35959 ft | 570 kts | 131° |
| 2026-05-04 07:28 | -34.42011 | 149.32843 | 34979 ft | 574 kts | 120° |
| 2026-05-04 07:28 | -34.43760 | 149.37196 | 34055 ft | 574 kts | 109° |
| 2026-05-04 07:28 | -34.44872 | 149.41821 | 33046 ft | 569 kts | 97° |
| 2026-05-04 07:28 | -34.45362 | 149.46512 | 32150 ft | 555 kts | 90° |
| 2026-05-04 07:29 | -34.45630 | 149.51129 | 31321 ft | 544 kts | 89° |
| 2026-05-04 07:29 | -34.45944 | 149.55646 | 30482 ft | 535 kts | 91° |
| 2026-05-04 07:29 | -34.46352 | 149.60087 | 29714 ft | 524 kts | 92° |
| 2026-05-04 07:29 | -34.46817 | 149.64407 | 29264 ft | 507 kts | 93° |
| 2026-05-04 07:30 | -34.47295 | 149.68564 | 28744 ft | 493 kts | 93° |
| 2026-05-04 07:30 | -34.47773 | 149.72647 | 28149 ft | 487 kts | 93° |
| 2026-05-04 07:30 | -34.48249 | 149.76702 | 27560 ft | 482 kts | 93° |
| 2026-05-04 07:30 | -34.48712 | 149.80655 | 26998 ft | 477 kts | 93° |
| 2026-05-04 07:31 | -34.49176 | 149.84623 | 26406 ft | 473 kts | 93° |
| 2026-05-04 07:31 | -34.49629 | 149.88550 | 25826 ft | 467 kts | 91° |
| 2026-05-04 07:33 | -34.42100 | 150.11598 | 21933 ft | 408 kts | 54° |
| 2026-05-04 07:33 | -34.40759 | 150.14608 | 21376 ft | 404 kts | 54° |
| 2026-05-04 07:33 | -34.39428 | 150.17603 | 20826 ft | 400 kts | 54° |
| 2026-05-04 07:33 | -34.38112 | 150.20560 | 20276 ft | 397 kts | 55° |
| 2026-05-04 07:34 | -34.36808 | 150.23488 | 19729 ft | 394 kts | 55° |
| 2026-05-04 07:34 | -34.35508 | 150.26402 | 19178 ft | 391 kts | 55° |
| 2026-05-04 07:34 | -34.34219 | 150.29290 | 18623 ft | 389 kts | 56° |
| 2026-05-04 07:34 | -34.32936 | 150.32162 | 18040 ft | 387 kts | 56° |
| 2026-05-04 07:35 | -34.31668 | 150.35002 | 17467 ft | 383 kts | 56° |
| 2026-05-04 07:35 | -34.30410 | 150.37814 | 16909 ft | 378 kts | 56° |
| 2026-05-04 07:35 | -34.29162 | 150.40603 | 16360 ft | 375 kts | 56° |
| 2026-05-04 07:35 | -34.27929 | 150.43358 | 15803 ft | 371 kts | 56° |
| 2026-05-04 07:36 | -34.26701 | 150.46101 | 15241 ft | 368 kts | 56° |
| 2026-05-04 07:36 | -34.25492 | 150.48808 | 14701 ft | 365 kts | 56° |
| 2026-05-04 07:38 | -34.17353 | 150.67040 | 10873 ft | 340 kts | 55° |
| 2026-05-04 07:38 | -34.16212 | 150.69528 | 10367 ft | 337 kts | 55° |
| 2026-05-04 07:38 | -34.15110 | 150.71962 | 10195 ft | 323 kts | 55° |
| 2026-05-04 07:38 | -34.14060 | 150.74299 | 10092 ft | 309 kts | 55° |
| 2026-05-04 07:39 | -34.13055 | 150.76538 | 9920 ft | 299 kts | 55° |
| 2026-05-04 07:39 | -34.12072 | 150.78716 | 9634 ft | 294 kts | 55° |
| 2026-05-04 07:39 | -34.11098 | 150.80865 | 9277 ft | 291 kts | 55° |
| 2026-05-04 07:39 | -34.10132 | 150.83000 | 8944 ft | 287 kts | 55° |
| 2026-05-04 07:40 | -34.09189 | 150.85084 | 8683 ft | 288 kts | 55° |
| 2026-05-04 07:40 | -34.08213 | 150.87246 | 8404 ft | 292 kts | 55° |
| 2026-05-04 07:40 | -34.07253 | 150.89380 | 8125 ft | 290 kts | 55° |
| 2026-05-04 07:40 | -34.06308 | 150.91480 | 7872 ft | 288 kts | 55° |
| 2026-05-04 07:41 | -34.05336 | 150.93638 | 7582 ft | 287 kts | 55° |
| 2026-05-04 07:41 | -34.04391 | 150.95735 | 7313 ft | 287 kts | 55° |
| 2026-05-04 07:41 | -34.03451 | 150.97892 | 7033 ft | 289 kts | 63° |
| 2026-05-04 07:41 | -34.03093 | 151.00276 | 6766 ft | 299 kts | 88° |
| 2026-05-04 07:42 | -34.03601 | 151.02712 | 6508 ft | 304 kts | 114° |
| 2026-05-04 07:42 | -34.04877 | 151.04764 | 6219 ft | 306 kts | 135° |
| 2026-05-04 07:42 | -34.06442 | 151.06450 | 5933 ft | 303 kts | 140° |
| 2026-05-04 07:42 | -34.08223 | 151.07792 | 5642 ft | 300 kts | 159° |
| 2026-05-04 07:43 | -34.10226 | 151.08416 | 5360 ft | 296 kts | 174° |
| 2026-05-04 07:43 | -34.12252 | 151.08836 | 5092 ft | 297 kts | 172° |
| 2026-05-04 07:43 | -34.14271 | 151.09330 | 4812 ft | 294 kts | 171° |
| 2026-05-04 07:43 | -34.16283 | 151.09854 | 4533 ft | 292 kts | 170° |
| 2026-05-04 07:44 | -34.18264 | 151.10377 | 4234 ft | 291 kts | 169° |
| 2026-05-04 07:44 | -34.20166 | 151.11206 | 4070 ft | 293 kts | 149° |
| 2026-05-04 07:44 | -34.21611 | 151.12847 | 3941 ft | 279 kts | 121° |
| 2026-05-04 07:44 | -34.22269 | 151.14963 | 3846 ft | 261 kts | 92° |
| 2026-05-04 07:45 | -34.22240 | 151.17045 | 3762 ft | 246 kts | 82° |
| 2026-05-04 07:45 | -34.22042 | 151.19073 | 3599 ft | 234 kts | 66° |
| 2026-05-04 07:45 | -34.21238 | 151.20680 | 3284 ft | 223 kts | 43° |
| 2026-05-04 07:45 | -34.20241 | 151.22032 | 3014 ft | 208 kts | 40° |
| 2026-05-04 07:46 | -34.19110 | 151.22897 | 2769 ft | 180 kts | 12° |
| 2026-05-04 07:46 | -34.17934 | 151.23055 | 2634 ft | 167 kts | 359° |
| 2026-05-04 07:46 | -34.16815 | 151.23015 | 2550 ft | 157 kts | 354° |
| 2026-05-04 07:46 | -34.15731 | 151.22856 | 2479 ft | 160 kts | 349° |
| 2026-05-04 07:47 | -34.14637 | 151.22617 | 2390 ft | 157 kts | 350° |
| 2026-05-04 07:47 | -34.13567 | 151.22402 | 2391 ft | 157 kts | 349° |
| 2026-05-04 07:47 | -34.12474 | 151.22183 | 2416 ft | 160 kts | 349° |
| 2026-05-04 07:49 | -34.05657 | 151.20462 | 2429 ft | 136 kts | 345° |
| 2026-05-04 07:49 | -34.04734 | 151.20192 | 2190 ft | 136 kts | 348° |
| 2026-05-04 07:49 | -34.03786 | 151.19969 | 1800 ft | 142 kts | 349° |
| 2026-05-04 07:50 | -34.02833 | 151.19746 | 1468 ft | 141 kts | 350° |
| 2026-05-04 07:50 | -34.01939 | 151.19489 | 1168 ft | 130 kts | 349° |
| 2026-05-04 07:50 | -34.01082 | 151.19241 | 945 ft | 123 kts | 352° |
| 2026-05-04 07:50 | -34.00249 | 151.19061 | 779 ft | 124 kts | 354° |
| 2026-05-04 07:51 | -33.99387 | 151.18850 | 630 ft | 127 kts | 349° |
| 2026-05-04 07:51 | -33.98498 | 151.18587 | 483 ft | 129 kts | 352° |
| 2026-05-04 07:51 | -33.97628 | 151.18374 | 318 ft | 130 kts | 350° |
| 2026-05-04 07:51 | -33.96739 | 151.18142 | 138 ft | 129 kts | 350° |
| 2026-05-04 07:52 | -33.95905 | 151.17933 | 34 ft | 109 kts | 348° |
| 2026-05-04 07:52 | -33.95342 | 151.17784 | 34 ft | 55 kts | 347° |
| 2026-05-04 07:52 | -33.95179 | 151.17741 | 33 ft | 23 kts | 348° |
| 2026-05-04 07:52 | -33.94987 | 151.17691 | 33 ft | 19 kts | 348° |
| 2026-05-04 07:53 | -33.94863 | 151.17661 | 34 ft | 18 kts | 348° |
| 2026-05-04 07:54 | -33.94160 | 151.17273 | 33 ft | 0 kts | 348° |
| 2026-05-04 07:55 | -33.94155 | 151.17272 | 33 ft | 3 kts | 348° |
| 2026-05-04 07:55 | -33.94120 | 151.17263 | 33 ft | 7 kts | 348° |
| 2026-05-04 07:55 | -33.94077 | 151.17231 | 34 ft | 8 kts | 295° |
| 2026-05-04 07:55 | -33.94080 | 151.17157 | 34 ft | 12 kts | 254° |
| 2026-05-04 07:56 | -33.94106 | 151.17042 | 34 ft | 17 kts | 254° |
| 2026-05-04 07:56 | -33.94140 | 151.16893 | 34 ft | 20 kts | 255° |
| 2026-05-04 07:56 | -33.94181 | 151.16717 | 34 ft | 23 kts | 253° |
| 2026-05-04 07:56 | -33.94219 | 151.16562 | 34 ft | 8 kts | 254° |
| 2026-05-04 07:57 | -33.94216 | 151.16488 | 34 ft | 8 kts | 308° |
| 2026-05-04 07:57 | -33.94173 | 151.16434 | 35 ft | 10 kts | 291° |
| 2026-05-04 07:57 | -33.94150 | 151.16349 | 35 ft | 11 kts | 311° |
| 2026-05-04 07:57 | -33.94106 | 151.16341 | 35 ft | 6 kts | 32° |
| 2026-05-04 07:58 | -33.94091 | 151.16355 | 35 ft | 3 kts | 40° |
| 2026-05-04 07:58 | -33.94075 | 151.16371 | 35 ft | 2 kts | 41° |
| 2026-05-04 07:58 | -33.94067 | 151.16380 | 35 ft | 1 kts | 42° |
| 2026-05-04 07:58 | -33.94062 | 151.16385 | 35 ft | 0 kts | 42° |